<?xml version="1.0" encoding="UTF-8" standalone="no" ?>
<gpx xmlns="http://www.topografix.com/GPX/1/1" xmlns:xsi="http://www.w3.org/2001/XMLSchema-instance" xsi:schemaLocation="http://www.topografix.com/GPX/1/1 http://www.topografix.com/GPX/1/1/gpx.xsd" version="1.1" creator="VisuGPX - https://www.visugpx.com">
  <metadata>
    <name>Tête des Lindars</name>
    <desc><![CDATA[Jolie rando tranquille de fin de saison au départ de Flaine.]]></desc>
  </metadata>
  <trk>
    <name><![CDATA[5 May 2018]]></name>
    <cmt><![CDATA[08:25:25]]></cmt>
    <desc><![CDATA[comment ...]]></desc>
    <trkseg>
      <trkpt lat="46.00434" lon="6.69043">
        <ele>1583</ele>
        <time>2018-05-05T06:25:27Z</time>
      </trkpt>
      <trkpt lat="46.00429" lon="6.69056">
        <ele>1589</ele>
        <time>2018-05-05T06:25:28Z</time>
      </trkpt>
      <trkpt lat="46.00422" lon="6.69083">
        <ele>1611</ele>
        <time>2018-05-05T06:25:45Z</time>
      </trkpt>
      <trkpt lat="46.00426" lon="6.69104">
        <ele>1612</ele>
        <time>2018-05-05T06:25:57Z</time>
      </trkpt>
      <trkpt lat="46.00419" lon="6.69107">
        <ele>1612</ele>
        <time>2018-05-05T06:26:11Z</time>
      </trkpt>
      <trkpt lat="46.00411" lon="6.69109">
        <ele>1610</ele>
        <time>2018-05-05T06:26:20Z</time>
      </trkpt>
      <trkpt lat="46.00406" lon="6.69117">
        <ele>1609</ele>
        <time>2018-05-05T06:26:25Z</time>
      </trkpt>
      <trkpt lat="46.00401" lon="6.69127">
        <ele>1605</ele>
        <time>2018-05-05T06:26:31Z</time>
      </trkpt>
      <trkpt lat="46.00406" lon="6.69134">
        <ele>1598</ele>
        <time>2018-05-05T06:27:13Z</time>
      </trkpt>
      <trkpt lat="46.00406" lon="6.69149">
        <ele>1594</ele>
        <time>2018-05-05T06:27:19Z</time>
      </trkpt>
      <trkpt lat="46.00401" lon="6.69157">
        <ele>1591</ele>
        <time>2018-05-05T06:27:30Z</time>
      </trkpt>
      <trkpt lat="46.00394" lon="6.69162">
        <ele>1589</ele>
        <time>2018-05-05T06:27:40Z</time>
      </trkpt>
      <trkpt lat="46.0039" lon="6.69171">
        <ele>1587</ele>
        <time>2018-05-05T06:27:48Z</time>
      </trkpt>
      <trkpt lat="46.00378" lon="6.69189">
        <ele>1584</ele>
        <time>2018-05-05T06:28:05Z</time>
      </trkpt>
      <trkpt lat="46.00369" lon="6.69199">
        <ele>1584</ele>
        <time>2018-05-05T06:28:16Z</time>
      </trkpt>
      <trkpt lat="46.00361" lon="6.69198">
        <ele>1584</ele>
        <time>2018-05-05T06:28:24Z</time>
      </trkpt>
      <trkpt lat="46.00345" lon="6.69197">
        <ele>1585</ele>
        <time>2018-05-05T06:28:40Z</time>
      </trkpt>
      <trkpt lat="46.00338" lon="6.69197">
        <ele>1585</ele>
        <time>2018-05-05T06:28:48Z</time>
      </trkpt>
      <trkpt lat="46.00332" lon="6.69203">
        <ele>1584</ele>
        <time>2018-05-05T06:28:56Z</time>
      </trkpt>
      <trkpt lat="46.00325" lon="6.69208">
        <ele>1583</ele>
        <time>2018-05-05T06:29:05Z</time>
      </trkpt>
      <trkpt lat="46.00317" lon="6.69211">
        <ele>1581</ele>
        <time>2018-05-05T06:29:39Z</time>
      </trkpt>
      <trkpt lat="46.0031" lon="6.69212">
        <ele>1579</ele>
        <time>2018-05-05T06:30:28Z</time>
      </trkpt>
      <trkpt lat="46.00303" lon="6.69212">
        <ele>1581</ele>
        <time>2018-05-05T06:33:24Z</time>
      </trkpt>
      <trkpt lat="46.00295" lon="6.6921">
        <ele>1582</ele>
        <time>2018-05-05T06:33:31Z</time>
      </trkpt>
      <trkpt lat="46.00283" lon="6.69211">
        <ele>1582</ele>
        <time>2018-05-05T06:33:49Z</time>
      </trkpt>
      <trkpt lat="46.00278" lon="6.69215">
        <ele>1582</ele>
        <time>2018-05-05T06:33:57Z</time>
      </trkpt>
      <trkpt lat="46.00273" lon="6.6922">
        <ele>1582</ele>
        <time>2018-05-05T06:34:06Z</time>
      </trkpt>
      <trkpt lat="46.00268" lon="6.69227">
        <ele>1581</ele>
        <time>2018-05-05T06:34:13Z</time>
      </trkpt>
      <trkpt lat="46.00266" lon="6.69234">
        <ele>1580</ele>
        <time>2018-05-05T06:34:22Z</time>
      </trkpt>
      <trkpt lat="46.0026" lon="6.69241">
        <ele>1579</ele>
        <time>2018-05-05T06:34:33Z</time>
      </trkpt>
      <trkpt lat="46.00253" lon="6.69237">
        <ele>1580</ele>
        <time>2018-05-05T06:34:55Z</time>
      </trkpt>
      <trkpt lat="46.00248" lon="6.69229">
        <ele>1582</ele>
        <time>2018-05-05T06:35:05Z</time>
      </trkpt>
      <trkpt lat="46.00243" lon="6.6922">
        <ele>1583</ele>
        <time>2018-05-05T06:35:18Z</time>
      </trkpt>
      <trkpt lat="46.0024" lon="6.6921">
        <ele>1587</ele>
        <time>2018-05-05T06:35:32Z</time>
      </trkpt>
      <trkpt lat="46.00235" lon="6.69202">
        <ele>1588</ele>
        <time>2018-05-05T06:35:40Z</time>
      </trkpt>
      <trkpt lat="46.00231" lon="6.69196">
        <ele>1590</ele>
        <time>2018-05-05T06:35:51Z</time>
      </trkpt>
      <trkpt lat="46.00227" lon="6.6919">
        <ele>1593</ele>
        <time>2018-05-05T06:36:01Z</time>
      </trkpt>
      <trkpt lat="46.00222" lon="6.69185">
        <ele>1594</ele>
        <time>2018-05-05T06:36:10Z</time>
      </trkpt>
      <trkpt lat="46.00218" lon="6.69179">
        <ele>1596</ele>
        <time>2018-05-05T06:36:18Z</time>
      </trkpt>
      <trkpt lat="46.00209" lon="6.69192">
        <ele>1598</ele>
        <time>2018-05-05T06:36:38Z</time>
      </trkpt>
      <trkpt lat="46.00205" lon="6.69202">
        <ele>1600</ele>
        <time>2018-05-05T06:36:48Z</time>
      </trkpt>
      <trkpt lat="46.00201" lon="6.69206">
        <ele>1602</ele>
        <time>2018-05-05T06:36:56Z</time>
      </trkpt>
      <trkpt lat="46.00195" lon="6.69214">
        <ele>1604</ele>
        <time>2018-05-05T06:37:13Z</time>
      </trkpt>
      <trkpt lat="46.0018" lon="6.69233">
        <ele>1608</ele>
        <time>2018-05-05T06:37:45Z</time>
      </trkpt>
      <trkpt lat="46.00177" lon="6.6924">
        <ele>1609</ele>
        <time>2018-05-05T06:37:54Z</time>
      </trkpt>
      <trkpt lat="46.00174" lon="6.69247">
        <ele>1609</ele>
        <time>2018-05-05T06:38:05Z</time>
      </trkpt>
      <trkpt lat="46.0017" lon="6.69253">
        <ele>1610</ele>
        <time>2018-05-05T06:38:14Z</time>
      </trkpt>
      <trkpt lat="46.00164" lon="6.69255">
        <ele>1612</ele>
        <time>2018-05-05T06:38:27Z</time>
      </trkpt>
      <trkpt lat="46.00159" lon="6.6925">
        <ele>1614</ele>
        <time>2018-05-05T06:38:36Z</time>
      </trkpt>
      <trkpt lat="46.00147" lon="6.69224">
        <ele>1617</ele>
        <time>2018-05-05T06:39:11Z</time>
      </trkpt>
      <trkpt lat="46.00144" lon="6.69217">
        <ele>1618</ele>
        <time>2018-05-05T06:39:17Z</time>
      </trkpt>
      <trkpt lat="46.00138" lon="6.69213">
        <ele>1619</ele>
        <time>2018-05-05T06:39:30Z</time>
      </trkpt>
      <trkpt lat="46.00134" lon="6.69207">
        <ele>1623</ele>
        <time>2018-05-05T06:39:47Z</time>
      </trkpt>
      <trkpt lat="46.00128" lon="6.69208">
        <ele>1624</ele>
        <time>2018-05-05T06:39:58Z</time>
      </trkpt>
      <trkpt lat="46.00125" lon="6.69216">
        <ele>1628</ele>
        <time>2018-05-05T06:40:08Z</time>
      </trkpt>
      <trkpt lat="46.00119" lon="6.69222">
        <ele>1630</ele>
        <time>2018-05-05T06:40:24Z</time>
      </trkpt>
      <trkpt lat="46.00114" lon="6.69225">
        <ele>1632</ele>
        <time>2018-05-05T06:40:30Z</time>
      </trkpt>
      <trkpt lat="46.0011" lon="6.69233">
        <ele>1634</ele>
        <time>2018-05-05T06:40:45Z</time>
      </trkpt>
      <trkpt lat="46.00106" lon="6.69241">
        <ele>1637</ele>
        <time>2018-05-05T06:40:57Z</time>
      </trkpt>
      <trkpt lat="46.00102" lon="6.69245">
        <ele>1637</ele>
        <time>2018-05-05T06:41:05Z</time>
      </trkpt>
      <trkpt lat="46.00099" lon="6.69253">
        <ele>1639</ele>
        <time>2018-05-05T06:41:17Z</time>
      </trkpt>
      <trkpt lat="46.00092" lon="6.69245">
        <ele>1640</ele>
        <time>2018-05-05T06:41:34Z</time>
      </trkpt>
      <trkpt lat="46.00084" lon="6.69234">
        <ele>1643</ele>
        <time>2018-05-05T06:41:55Z</time>
      </trkpt>
      <trkpt lat="46.00075" lon="6.69222">
        <ele>1645</ele>
        <time>2018-05-05T06:42:22Z</time>
      </trkpt>
      <trkpt lat="46.00071" lon="6.69213">
        <ele>1647</ele>
        <time>2018-05-05T06:42:34Z</time>
      </trkpt>
      <trkpt lat="46.00066" lon="6.69205">
        <ele>1648</ele>
        <time>2018-05-05T06:42:42Z</time>
      </trkpt>
      <trkpt lat="46.00062" lon="6.69198">
        <ele>1650</ele>
        <time>2018-05-05T06:42:54Z</time>
      </trkpt>
      <trkpt lat="46.00057" lon="6.69193">
        <ele>1651</ele>
        <time>2018-05-05T06:43:05Z</time>
      </trkpt>
      <trkpt lat="46.00051" lon="6.69191">
        <ele>1654</ele>
        <time>2018-05-05T06:43:22Z</time>
      </trkpt>
      <trkpt lat="46.00045" lon="6.69205">
        <ele>1656</ele>
        <time>2018-05-05T06:43:41Z</time>
      </trkpt>
      <trkpt lat="46.00039" lon="6.69206">
        <ele>1658</ele>
        <time>2018-05-05T06:43:57Z</time>
      </trkpt>
      <trkpt lat="46.00036" lon="6.69213">
        <ele>1658</ele>
        <time>2018-05-05T06:44:05Z</time>
      </trkpt>
      <trkpt lat="46.00033" lon="6.69219">
        <ele>1661</ele>
        <time>2018-05-05T06:44:17Z</time>
      </trkpt>
      <trkpt lat="46.00028" lon="6.69222">
        <ele>1662</ele>
        <time>2018-05-05T06:44:27Z</time>
      </trkpt>
      <trkpt lat="46.00021" lon="6.69227">
        <ele>1665</ele>
        <time>2018-05-05T06:44:40Z</time>
      </trkpt>
      <trkpt lat="46.00016" lon="6.69231">
        <ele>1669</ele>
        <time>2018-05-05T06:45:05Z</time>
      </trkpt>
      <trkpt lat="46.00012" lon="6.69238">
        <ele>1671</ele>
        <time>2018-05-05T06:45:20Z</time>
      </trkpt>
      <trkpt lat="46.00003" lon="6.69249">
        <ele>1675</ele>
        <time>2018-05-05T06:45:41Z</time>
      </trkpt>
      <trkpt lat="45.99997" lon="6.69263">
        <ele>1679</ele>
        <time>2018-05-05T06:46:05Z</time>
      </trkpt>
      <trkpt lat="45.99991" lon="6.69259">
        <ele>1683</ele>
        <time>2018-05-05T06:46:26Z</time>
      </trkpt>
      <trkpt lat="45.99989" lon="6.6925">
        <ele>1685</ele>
        <time>2018-05-05T06:46:37Z</time>
      </trkpt>
      <trkpt lat="45.99984" lon="6.69243">
        <ele>1687</ele>
        <time>2018-05-05T06:46:56Z</time>
      </trkpt>
      <trkpt lat="45.99981" lon="6.69236">
        <ele>1688</ele>
        <time>2018-05-05T06:47:11Z</time>
      </trkpt>
      <trkpt lat="45.99975" lon="6.69228">
        <ele>1689</ele>
        <time>2018-05-05T06:47:25Z</time>
      </trkpt>
      <trkpt lat="45.99974" lon="6.69221">
        <ele>1691</ele>
        <time>2018-05-05T06:47:35Z</time>
      </trkpt>
      <trkpt lat="45.9997" lon="6.69212">
        <ele>1692</ele>
        <time>2018-05-05T06:47:47Z</time>
      </trkpt>
      <trkpt lat="45.99965" lon="6.69206">
        <ele>1694</ele>
        <time>2018-05-05T06:48:02Z</time>
      </trkpt>
      <trkpt lat="45.99957" lon="6.69196">
        <ele>1697</ele>
        <time>2018-05-05T06:48:22Z</time>
      </trkpt>
      <trkpt lat="45.99952" lon="6.6919">
        <ele>1699</ele>
        <time>2018-05-05T06:48:35Z</time>
      </trkpt>
      <trkpt lat="45.99945" lon="6.6919">
        <ele>1702</ele>
        <time>2018-05-05T06:48:50Z</time>
      </trkpt>
      <trkpt lat="45.99941" lon="6.69199">
        <ele>1703</ele>
        <time>2018-05-05T06:49:06Z</time>
      </trkpt>
      <trkpt lat="45.99938" lon="6.69208">
        <ele>1707</ele>
        <time>2018-05-05T06:49:23Z</time>
      </trkpt>
      <trkpt lat="45.99932" lon="6.69214">
        <ele>1713</ele>
        <time>2018-05-05T06:49:41Z</time>
      </trkpt>
      <trkpt lat="45.99929" lon="6.69221">
        <ele>1714</ele>
        <time>2018-05-05T06:49:50Z</time>
      </trkpt>
      <trkpt lat="45.99925" lon="6.69227">
        <ele>1718</ele>
        <time>2018-05-05T06:50:04Z</time>
      </trkpt>
      <trkpt lat="45.9992" lon="6.69226">
        <ele>1718</ele>
        <time>2018-05-05T06:50:20Z</time>
      </trkpt>
      <trkpt lat="45.99911" lon="6.69215">
        <ele>1720</ele>
        <time>2018-05-05T06:50:43Z</time>
      </trkpt>
      <trkpt lat="45.99907" lon="6.69209">
        <ele>1722</ele>
        <time>2018-05-05T06:50:54Z</time>
      </trkpt>
      <trkpt lat="45.99901" lon="6.69209">
        <ele>1723</ele>
        <time>2018-05-05T06:51:06Z</time>
      </trkpt>
      <trkpt lat="45.99897" lon="6.69217">
        <ele>1726</ele>
        <time>2018-05-05T06:51:18Z</time>
      </trkpt>
      <trkpt lat="45.99894" lon="6.69227">
        <ele>1727</ele>
        <time>2018-05-05T06:51:32Z</time>
      </trkpt>
      <trkpt lat="45.9989" lon="6.69234">
        <ele>1730</ele>
        <time>2018-05-05T06:51:44Z</time>
      </trkpt>
      <trkpt lat="45.99887" lon="6.6924">
        <ele>1731</ele>
        <time>2018-05-05T06:51:53Z</time>
      </trkpt>
      <trkpt lat="45.99876" lon="6.69239">
        <ele>1734</ele>
        <time>2018-05-05T06:52:17Z</time>
      </trkpt>
      <trkpt lat="45.99871" lon="6.69247">
        <ele>1735</ele>
        <time>2018-05-05T06:52:26Z</time>
      </trkpt>
      <trkpt lat="45.99866" lon="6.69266">
        <ele>1738</ele>
        <time>2018-05-05T06:52:42Z</time>
      </trkpt>
      <trkpt lat="45.99866" lon="6.69276">
        <ele>1741</ele>
        <time>2018-05-05T06:52:54Z</time>
      </trkpt>
      <trkpt lat="45.99865" lon="6.69287">
        <ele>1742</ele>
        <time>2018-05-05T06:53:02Z</time>
      </trkpt>
      <trkpt lat="45.9987" lon="6.69308">
        <ele>1744</ele>
        <time>2018-05-05T06:53:16Z</time>
      </trkpt>
      <trkpt lat="45.99872" lon="6.6932">
        <ele>1744</ele>
        <time>2018-05-05T06:53:22Z</time>
      </trkpt>
      <trkpt lat="45.99867" lon="6.69335">
        <ele>1744</ele>
        <time>2018-05-05T06:53:33Z</time>
      </trkpt>
      <trkpt lat="45.99865" lon="6.69347">
        <ele>1744</ele>
        <time>2018-05-05T06:53:40Z</time>
      </trkpt>
      <trkpt lat="45.99862" lon="6.69355">
        <ele>1744</ele>
        <time>2018-05-05T06:55:33Z</time>
      </trkpt>
      <trkpt lat="45.99857" lon="6.69359">
        <ele>1745</ele>
        <time>2018-05-05T06:56:57Z</time>
      </trkpt>
      <trkpt lat="45.99844" lon="6.69371">
        <ele>1750</ele>
        <time>2018-05-05T06:57:21Z</time>
      </trkpt>
      <trkpt lat="45.99838" lon="6.69377">
        <ele>1751</ele>
        <time>2018-05-05T06:57:28Z</time>
      </trkpt>
      <trkpt lat="45.99827" lon="6.69391">
        <ele>1751</ele>
        <time>2018-05-05T06:57:46Z</time>
      </trkpt>
      <trkpt lat="45.99821" lon="6.69397">
        <ele>1752</ele>
        <time>2018-05-05T06:57:55Z</time>
      </trkpt>
      <trkpt lat="45.99817" lon="6.69403">
        <ele>1752</ele>
        <time>2018-05-05T06:58:04Z</time>
      </trkpt>
      <trkpt lat="45.99813" lon="6.69408">
        <ele>1752</ele>
        <time>2018-05-05T06:58:11Z</time>
      </trkpt>
      <trkpt lat="45.99811" lon="6.69416">
        <ele>1753</ele>
        <time>2018-05-05T06:58:21Z</time>
      </trkpt>
      <trkpt lat="45.99807" lon="6.69425">
        <ele>1754</ele>
        <time>2018-05-05T06:58:36Z</time>
      </trkpt>
      <trkpt lat="45.99801" lon="6.6943">
        <ele>1758</ele>
        <time>2018-05-05T06:58:49Z</time>
      </trkpt>
      <trkpt lat="45.99796" lon="6.69434">
        <ele>1760</ele>
        <time>2018-05-05T06:58:59Z</time>
      </trkpt>
      <trkpt lat="45.9979" lon="6.69446">
        <ele>1763</ele>
        <time>2018-05-05T06:59:16Z</time>
      </trkpt>
      <trkpt lat="45.99787" lon="6.69453">
        <ele>1764</ele>
        <time>2018-05-05T06:59:28Z</time>
      </trkpt>
      <trkpt lat="45.99772" lon="6.69465">
        <ele>1768</ele>
        <time>2018-05-05T07:00:04Z</time>
      </trkpt>
      <trkpt lat="45.99767" lon="6.6947">
        <ele>1770</ele>
        <time>2018-05-05T07:00:17Z</time>
      </trkpt>
      <trkpt lat="45.99762" lon="6.69476">
        <ele>1772</ele>
        <time>2018-05-05T07:00:29Z</time>
      </trkpt>
      <trkpt lat="45.99758" lon="6.69481">
        <ele>1773</ele>
        <time>2018-05-05T07:00:39Z</time>
      </trkpt>
      <trkpt lat="45.99753" lon="6.69483">
        <ele>1775</ele>
        <time>2018-05-05T07:00:53Z</time>
      </trkpt>
      <trkpt lat="45.99748" lon="6.69485">
        <ele>1777</ele>
        <time>2018-05-05T07:01:02Z</time>
      </trkpt>
      <trkpt lat="45.99744" lon="6.69479">
        <ele>1778</ele>
        <time>2018-05-05T07:01:13Z</time>
      </trkpt>
      <trkpt lat="45.99741" lon="6.69474">
        <ele>1780</ele>
        <time>2018-05-05T07:01:21Z</time>
      </trkpt>
      <trkpt lat="45.99736" lon="6.69469">
        <ele>1781</ele>
        <time>2018-05-05T07:01:34Z</time>
      </trkpt>
      <trkpt lat="45.99733" lon="6.69462">
        <ele>1783</ele>
        <time>2018-05-05T07:01:46Z</time>
      </trkpt>
      <trkpt lat="45.99729" lon="6.69456">
        <ele>1785</ele>
        <time>2018-05-05T07:01:55Z</time>
      </trkpt>
      <trkpt lat="45.9972" lon="6.69443">
        <ele>1789</ele>
        <time>2018-05-05T07:02:20Z</time>
      </trkpt>
      <trkpt lat="45.99711" lon="6.69434">
        <ele>1792</ele>
        <time>2018-05-05T07:02:36Z</time>
      </trkpt>
      <trkpt lat="45.99707" lon="6.69428">
        <ele>1793</ele>
        <time>2018-05-05T07:02:48Z</time>
      </trkpt>
      <trkpt lat="45.99702" lon="6.69423">
        <ele>1794</ele>
        <time>2018-05-05T07:02:58Z</time>
      </trkpt>
      <trkpt lat="45.99698" lon="6.69417">
        <ele>1797</ele>
        <time>2018-05-05T07:03:12Z</time>
      </trkpt>
      <trkpt lat="45.99692" lon="6.69416">
        <ele>1797</ele>
        <time>2018-05-05T07:03:22Z</time>
      </trkpt>
      <trkpt lat="45.99687" lon="6.6941">
        <ele>1799</ele>
        <time>2018-05-05T07:03:35Z</time>
      </trkpt>
      <trkpt lat="45.99682" lon="6.69406">
        <ele>1800</ele>
        <time>2018-05-05T07:03:45Z</time>
      </trkpt>
      <trkpt lat="45.99671" lon="6.69397">
        <ele>1803</ele>
        <time>2018-05-05T07:04:06Z</time>
      </trkpt>
      <trkpt lat="45.99664" lon="6.69398">
        <ele>1804</ele>
        <time>2018-05-05T07:04:16Z</time>
      </trkpt>
      <trkpt lat="45.99658" lon="6.69397">
        <ele>1806</ele>
        <time>2018-05-05T07:04:28Z</time>
      </trkpt>
      <trkpt lat="45.99652" lon="6.69391">
        <ele>1807</ele>
        <time>2018-05-05T07:04:38Z</time>
      </trkpt>
      <trkpt lat="45.99647" lon="6.69387">
        <ele>1809</ele>
        <time>2018-05-05T07:04:46Z</time>
      </trkpt>
      <trkpt lat="45.9963" lon="6.69381">
        <ele>1811</ele>
        <time>2018-05-05T07:05:09Z</time>
      </trkpt>
      <trkpt lat="45.99624" lon="6.69383">
        <ele>1812</ele>
        <time>2018-05-05T07:05:22Z</time>
      </trkpt>
      <trkpt lat="45.99619" lon="6.69386">
        <ele>1813</ele>
        <time>2018-05-05T07:05:27Z</time>
      </trkpt>
      <trkpt lat="45.99614" lon="6.69383">
        <ele>1814</ele>
        <time>2018-05-05T07:05:36Z</time>
      </trkpt>
      <trkpt lat="45.99609" lon="6.69382">
        <ele>1814</ele>
        <time>2018-05-05T07:05:46Z</time>
      </trkpt>
      <trkpt lat="45.99603" lon="6.69385">
        <ele>1816</ele>
        <time>2018-05-05T07:05:54Z</time>
      </trkpt>
      <trkpt lat="45.9959" lon="6.69385">
        <ele>1820</ele>
        <time>2018-05-05T07:06:16Z</time>
      </trkpt>
      <trkpt lat="45.99586" lon="6.6939">
        <ele>1823</ele>
        <time>2018-05-05T07:06:26Z</time>
      </trkpt>
      <trkpt lat="45.9958" lon="6.69389">
        <ele>1824</ele>
        <time>2018-05-05T07:06:38Z</time>
      </trkpt>
      <trkpt lat="45.99574" lon="6.69391">
        <ele>1827</ele>
        <time>2018-05-05T07:06:53Z</time>
      </trkpt>
      <trkpt lat="45.99569" lon="6.69398">
        <ele>1828</ele>
        <time>2018-05-05T07:07:08Z</time>
      </trkpt>
      <trkpt lat="45.99565" lon="6.69403">
        <ele>1830</ele>
        <time>2018-05-05T07:07:13Z</time>
      </trkpt>
      <trkpt lat="45.9956" lon="6.69418">
        <ele>1832</ele>
        <time>2018-05-05T07:07:28Z</time>
      </trkpt>
      <trkpt lat="45.99546" lon="6.69447">
        <ele>1835</ele>
        <time>2018-05-05T07:07:57Z</time>
      </trkpt>
      <trkpt lat="45.99547" lon="6.69454">
        <ele>1836</ele>
        <time>2018-05-05T07:08:11Z</time>
      </trkpt>
      <trkpt lat="45.99541" lon="6.6946">
        <ele>1837</ele>
        <time>2018-05-05T07:08:24Z</time>
      </trkpt>
      <trkpt lat="45.99533" lon="6.69473">
        <ele>1838</ele>
        <time>2018-05-05T07:08:42Z</time>
      </trkpt>
      <trkpt lat="45.99529" lon="6.69478">
        <ele>1839</ele>
        <time>2018-05-05T07:08:49Z</time>
      </trkpt>
      <trkpt lat="45.99526" lon="6.69485">
        <ele>1839</ele>
        <time>2018-05-05T07:08:57Z</time>
      </trkpt>
      <trkpt lat="45.99515" lon="6.69501">
        <ele>1842</ele>
        <time>2018-05-05T07:09:18Z</time>
      </trkpt>
      <trkpt lat="45.99503" lon="6.69515">
        <ele>1845</ele>
        <time>2018-05-05T07:09:48Z</time>
      </trkpt>
      <trkpt lat="45.99499" lon="6.6952">
        <ele>1845</ele>
        <time>2018-05-05T07:09:59Z</time>
      </trkpt>
      <trkpt lat="45.99494" lon="6.69523">
        <ele>1847</ele>
        <time>2018-05-05T07:10:08Z</time>
      </trkpt>
      <trkpt lat="45.9949" lon="6.69528">
        <ele>1847</ele>
        <time>2018-05-05T07:10:16Z</time>
      </trkpt>
      <trkpt lat="45.99486" lon="6.69535">
        <ele>1849</ele>
        <time>2018-05-05T07:10:29Z</time>
      </trkpt>
      <trkpt lat="45.99479" lon="6.69541">
        <ele>1851</ele>
        <time>2018-05-05T07:10:43Z</time>
      </trkpt>
      <trkpt lat="45.99476" lon="6.69548">
        <ele>1852</ele>
        <time>2018-05-05T07:10:53Z</time>
      </trkpt>
      <trkpt lat="45.99472" lon="6.69554">
        <ele>1854</ele>
        <time>2018-05-05T07:11:08Z</time>
      </trkpt>
      <trkpt lat="45.99467" lon="6.69556">
        <ele>1857</ele>
        <time>2018-05-05T07:11:20Z</time>
      </trkpt>
      <trkpt lat="45.99462" lon="6.69561">
        <ele>1859</ele>
        <time>2018-05-05T07:11:31Z</time>
      </trkpt>
      <trkpt lat="45.99449" lon="6.69577">
        <ele>1866</ele>
        <time>2018-05-05T07:12:05Z</time>
      </trkpt>
      <trkpt lat="45.9944" lon="6.69588">
        <ele>1869</ele>
        <time>2018-05-05T07:12:33Z</time>
      </trkpt>
      <trkpt lat="45.99435" lon="6.69591">
        <ele>1870</ele>
        <time>2018-05-05T07:12:47Z</time>
      </trkpt>
      <trkpt lat="45.9943" lon="6.69594">
        <ele>1871</ele>
        <time>2018-05-05T07:12:57Z</time>
      </trkpt>
      <trkpt lat="45.99425" lon="6.69599">
        <ele>1873</ele>
        <time>2018-05-05T07:13:11Z</time>
      </trkpt>
      <trkpt lat="45.9942" lon="6.69603">
        <ele>1874</ele>
        <time>2018-05-05T07:13:22Z</time>
      </trkpt>
      <trkpt lat="45.99417" lon="6.69609">
        <ele>1877</ele>
        <time>2018-05-05T07:13:35Z</time>
      </trkpt>
      <trkpt lat="45.99411" lon="6.69612">
        <ele>1877</ele>
        <time>2018-05-05T07:13:46Z</time>
      </trkpt>
      <trkpt lat="45.99401" lon="6.69619">
        <ele>1880</ele>
        <time>2018-05-05T07:14:08Z</time>
      </trkpt>
      <trkpt lat="45.99397" lon="6.6962">
        <ele>1882</ele>
        <time>2018-05-05T07:14:16Z</time>
      </trkpt>
      <trkpt lat="45.99392" lon="6.69625">
        <ele>1883</ele>
        <time>2018-05-05T07:14:28Z</time>
      </trkpt>
      <trkpt lat="45.99388" lon="6.69628">
        <ele>1886</ele>
        <time>2018-05-05T07:14:37Z</time>
      </trkpt>
      <trkpt lat="45.99383" lon="6.69631">
        <ele>1887</ele>
        <time>2018-05-05T07:14:45Z</time>
      </trkpt>
      <trkpt lat="45.99373" lon="6.6964">
        <ele>1890</ele>
        <time>2018-05-05T07:15:10Z</time>
      </trkpt>
      <trkpt lat="45.99366" lon="6.69643">
        <ele>1894</ele>
        <time>2018-05-05T07:15:24Z</time>
      </trkpt>
      <trkpt lat="45.99358" lon="6.69653">
        <ele>1896</ele>
        <time>2018-05-05T07:15:46Z</time>
      </trkpt>
      <trkpt lat="45.99353" lon="6.69656">
        <ele>1898</ele>
        <time>2018-05-05T07:15:58Z</time>
      </trkpt>
      <trkpt lat="45.99348" lon="6.6966">
        <ele>1900</ele>
        <time>2018-05-05T07:16:10Z</time>
      </trkpt>
      <trkpt lat="45.99343" lon="6.69663">
        <ele>1902</ele>
        <time>2018-05-05T07:16:22Z</time>
      </trkpt>
      <trkpt lat="45.99338" lon="6.69667">
        <ele>1903</ele>
        <time>2018-05-05T07:16:30Z</time>
      </trkpt>
      <trkpt lat="45.99333" lon="6.6967">
        <ele>1906</ele>
        <time>2018-05-05T07:16:38Z</time>
      </trkpt>
      <trkpt lat="45.9933" lon="6.69673">
        <ele>1907</ele>
        <time>2018-05-05T07:16:47Z</time>
      </trkpt>
      <trkpt lat="45.99314" lon="6.69684">
        <ele>1910</ele>
        <time>2018-05-05T07:17:19Z</time>
      </trkpt>
      <trkpt lat="45.99296" lon="6.69691">
        <ele>1914</ele>
        <time>2018-05-05T07:17:53Z</time>
      </trkpt>
      <trkpt lat="45.9929" lon="6.69694">
        <ele>1916</ele>
        <time>2018-05-05T07:18:04Z</time>
      </trkpt>
      <trkpt lat="45.99285" lon="6.69694">
        <ele>1916</ele>
        <time>2018-05-05T07:18:15Z</time>
      </trkpt>
      <trkpt lat="45.99281" lon="6.69694">
        <ele>1918</ele>
        <time>2018-05-05T07:18:22Z</time>
      </trkpt>
      <trkpt lat="45.99274" lon="6.69693">
        <ele>1919</ele>
        <time>2018-05-05T07:18:32Z</time>
      </trkpt>
      <trkpt lat="45.99262" lon="6.69693">
        <ele>1922</ele>
        <time>2018-05-05T07:18:53Z</time>
      </trkpt>
      <trkpt lat="45.99259" lon="6.69717">
        <ele>1929</ele>
        <time>2018-05-05T07:19:26Z</time>
      </trkpt>
      <trkpt lat="45.99257" lon="6.69727">
        <ele>1931</ele>
        <time>2018-05-05T07:19:37Z</time>
      </trkpt>
      <trkpt lat="45.99254" lon="6.69735">
        <ele>1932</ele>
        <time>2018-05-05T07:19:44Z</time>
      </trkpt>
      <trkpt lat="45.99254" lon="6.69743">
        <ele>1932</ele>
        <time>2018-05-05T07:19:52Z</time>
      </trkpt>
      <trkpt lat="45.99255" lon="6.69752">
        <ele>1934</ele>
        <time>2018-05-05T07:20:05Z</time>
      </trkpt>
      <trkpt lat="45.99252" lon="6.69767">
        <ele>1937</ele>
        <time>2018-05-05T07:20:29Z</time>
      </trkpt>
      <trkpt lat="45.99251" lon="6.69775">
        <ele>1938</ele>
        <time>2018-05-05T07:20:45Z</time>
      </trkpt>
      <trkpt lat="45.99246" lon="6.69779">
        <ele>1940</ele>
        <time>2018-05-05T07:20:52Z</time>
      </trkpt>
      <trkpt lat="45.9924" lon="6.6978">
        <ele>1942</ele>
        <time>2018-05-05T07:21:08Z</time>
      </trkpt>
      <trkpt lat="45.99235" lon="6.69781">
        <ele>1945</ele>
        <time>2018-05-05T07:21:18Z</time>
      </trkpt>
      <trkpt lat="45.99229" lon="6.6978">
        <ele>1947</ele>
        <time>2018-05-05T07:21:31Z</time>
      </trkpt>
      <trkpt lat="45.99216" lon="6.69775">
        <ele>1950</ele>
        <time>2018-05-05T07:21:57Z</time>
      </trkpt>
      <trkpt lat="45.99211" lon="6.69771">
        <ele>1952</ele>
        <time>2018-05-05T07:22:07Z</time>
      </trkpt>
      <trkpt lat="45.99205" lon="6.69773">
        <ele>1952</ele>
        <time>2018-05-05T07:22:20Z</time>
      </trkpt>
      <trkpt lat="45.99202" lon="6.69781">
        <ele>1954</ele>
        <time>2018-05-05T07:22:33Z</time>
      </trkpt>
      <trkpt lat="45.992" lon="6.69789">
        <ele>1955</ele>
        <time>2018-05-05T07:22:47Z</time>
      </trkpt>
      <trkpt lat="45.99193" lon="6.69802">
        <ele>1957</ele>
        <time>2018-05-05T07:23:06Z</time>
      </trkpt>
      <trkpt lat="45.99191" lon="6.69811">
        <ele>1960</ele>
        <time>2018-05-05T07:23:16Z</time>
      </trkpt>
      <trkpt lat="45.99178" lon="6.69828">
        <ele>1965</ele>
        <time>2018-05-05T07:23:56Z</time>
      </trkpt>
      <trkpt lat="45.99174" lon="6.69834">
        <ele>1969</ele>
        <time>2018-05-05T07:24:07Z</time>
      </trkpt>
      <trkpt lat="45.99158" lon="6.69835">
        <ele>1972</ele>
        <time>2018-05-05T07:24:39Z</time>
      </trkpt>
      <trkpt lat="45.99153" lon="6.69835">
        <ele>1975</ele>
        <time>2018-05-05T07:24:53Z</time>
      </trkpt>
      <trkpt lat="45.99147" lon="6.69833">
        <ele>1976</ele>
        <time>2018-05-05T07:25:01Z</time>
      </trkpt>
      <trkpt lat="45.99142" lon="6.69831">
        <ele>1979</ele>
        <time>2018-05-05T07:25:11Z</time>
      </trkpt>
      <trkpt lat="45.99137" lon="6.69828">
        <ele>1980</ele>
        <time>2018-05-05T07:25:23Z</time>
      </trkpt>
      <trkpt lat="45.99132" lon="6.69833">
        <ele>1983</ele>
        <time>2018-05-05T07:25:39Z</time>
      </trkpt>
      <trkpt lat="45.9913" lon="6.69841">
        <ele>1984</ele>
        <time>2018-05-05T07:25:49Z</time>
      </trkpt>
      <trkpt lat="45.99127" lon="6.69848">
        <ele>1986</ele>
        <time>2018-05-05T07:25:58Z</time>
      </trkpt>
      <trkpt lat="45.99125" lon="6.69858">
        <ele>1987</ele>
        <time>2018-05-05T07:26:12Z</time>
      </trkpt>
      <trkpt lat="45.99121" lon="6.69868">
        <ele>1990</ele>
        <time>2018-05-05T07:26:26Z</time>
      </trkpt>
      <trkpt lat="45.99116" lon="6.69872">
        <ele>1991</ele>
        <time>2018-05-05T07:26:34Z</time>
      </trkpt>
      <trkpt lat="45.99108" lon="6.69876">
        <ele>1992</ele>
        <time>2018-05-05T07:26:42Z</time>
      </trkpt>
      <trkpt lat="45.99102" lon="6.69883">
        <ele>1993</ele>
        <time>2018-05-05T07:26:57Z</time>
      </trkpt>
      <trkpt lat="45.99096" lon="6.69889">
        <ele>1996</ele>
        <time>2018-05-05T07:27:16Z</time>
      </trkpt>
      <trkpt lat="45.99091" lon="6.69899">
        <ele>1999</ele>
        <time>2018-05-05T07:27:33Z</time>
      </trkpt>
      <trkpt lat="45.99085" lon="6.69907">
        <ele>2003</ele>
        <time>2018-05-05T07:27:54Z</time>
      </trkpt>
      <trkpt lat="45.99078" lon="6.69912">
        <ele>2006</ele>
        <time>2018-05-05T07:28:04Z</time>
      </trkpt>
      <trkpt lat="45.99073" lon="6.69916">
        <ele>2007</ele>
        <time>2018-05-05T07:28:15Z</time>
      </trkpt>
      <trkpt lat="45.99068" lon="6.6992">
        <ele>2009</ele>
        <time>2018-05-05T07:28:28Z</time>
      </trkpt>
      <trkpt lat="45.99062" lon="6.69927">
        <ele>2010</ele>
        <time>2018-05-05T07:28:42Z</time>
      </trkpt>
      <trkpt lat="45.99057" lon="6.69932">
        <ele>2012</ele>
        <time>2018-05-05T07:28:56Z</time>
      </trkpt>
      <trkpt lat="45.9905" lon="6.6994">
        <ele>2014</ele>
        <time>2018-05-05T07:29:11Z</time>
      </trkpt>
      <trkpt lat="45.99043" lon="6.69943">
        <ele>2017</ele>
        <time>2018-05-05T07:29:25Z</time>
      </trkpt>
      <trkpt lat="45.99036" lon="6.69947">
        <ele>2018</ele>
        <time>2018-05-05T07:29:41Z</time>
      </trkpt>
      <trkpt lat="45.99029" lon="6.69948">
        <ele>2021</ele>
        <time>2018-05-05T07:29:54Z</time>
      </trkpt>
      <trkpt lat="45.99022" lon="6.69952">
        <ele>2022</ele>
        <time>2018-05-05T07:30:06Z</time>
      </trkpt>
      <trkpt lat="45.99017" lon="6.69958">
        <ele>2026</ele>
        <time>2018-05-05T07:30:25Z</time>
      </trkpt>
      <trkpt lat="45.99012" lon="6.69966">
        <ele>2028</ele>
        <time>2018-05-05T07:30:39Z</time>
      </trkpt>
      <trkpt lat="45.99004" lon="6.69981">
        <ele>2032</ele>
        <time>2018-05-05T07:31:08Z</time>
      </trkpt>
      <trkpt lat="45.99004" lon="6.69997">
        <ele>2036</ele>
        <time>2018-05-05T07:31:33Z</time>
      </trkpt>
      <trkpt lat="45.99005" lon="6.70008">
        <ele>2038</ele>
        <time>2018-05-05T07:31:49Z</time>
      </trkpt>
      <trkpt lat="45.99008" lon="6.70019">
        <ele>2041</ele>
        <time>2018-05-05T07:32:03Z</time>
      </trkpt>
      <trkpt lat="45.99006" lon="6.7003">
        <ele>2043</ele>
        <time>2018-05-05T07:32:18Z</time>
      </trkpt>
      <trkpt lat="45.99001" lon="6.70039">
        <ele>2045</ele>
        <time>2018-05-05T07:32:29Z</time>
      </trkpt>
      <trkpt lat="45.98996" lon="6.70046">
        <ele>2046</ele>
        <time>2018-05-05T07:32:40Z</time>
      </trkpt>
      <trkpt lat="45.98991" lon="6.70055">
        <ele>2048</ele>
        <time>2018-05-05T07:32:58Z</time>
      </trkpt>
      <trkpt lat="45.98987" lon="6.70064">
        <ele>2050</ele>
        <time>2018-05-05T07:33:07Z</time>
      </trkpt>
      <trkpt lat="45.98984" lon="6.70074">
        <ele>2053</ele>
        <time>2018-05-05T07:33:20Z</time>
      </trkpt>
      <trkpt lat="45.98983" lon="6.70086">
        <ele>2054</ele>
        <time>2018-05-05T07:33:36Z</time>
      </trkpt>
      <trkpt lat="45.98982" lon="6.70098">
        <ele>2057</ele>
        <time>2018-05-05T07:33:53Z</time>
      </trkpt>
      <trkpt lat="45.98978" lon="6.70108">
        <ele>2058</ele>
        <time>2018-05-05T07:34:09Z</time>
      </trkpt>
      <trkpt lat="45.98974" lon="6.70131">
        <ele>2062</ele>
        <time>2018-05-05T07:34:33Z</time>
      </trkpt>
      <trkpt lat="45.98972" lon="6.70142">
        <ele>2064</ele>
        <time>2018-05-05T07:34:41Z</time>
      </trkpt>
      <trkpt lat="45.98968" lon="6.70153">
        <ele>2065</ele>
        <time>2018-05-05T07:34:52Z</time>
      </trkpt>
      <trkpt lat="45.98963" lon="6.70164">
        <ele>2067</ele>
        <time>2018-05-05T07:35:04Z</time>
      </trkpt>
      <trkpt lat="45.98959" lon="6.70175">
        <ele>2068</ele>
        <time>2018-05-05T07:35:15Z</time>
      </trkpt>
      <trkpt lat="45.98958" lon="6.70186">
        <ele>2069</ele>
        <time>2018-05-05T07:35:26Z</time>
      </trkpt>
      <trkpt lat="45.98958" lon="6.70199">
        <ele>2070</ele>
        <time>2018-05-05T07:35:37Z</time>
      </trkpt>
      <trkpt lat="45.98957" lon="6.70211">
        <ele>2072</ele>
        <time>2018-05-05T07:35:46Z</time>
      </trkpt>
      <trkpt lat="45.98952" lon="6.70221">
        <ele>2074</ele>
        <time>2018-05-05T07:36:04Z</time>
      </trkpt>
      <trkpt lat="45.98951" lon="6.70231">
        <ele>2077</ele>
        <time>2018-05-05T07:36:20Z</time>
      </trkpt>
      <trkpt lat="45.98948" lon="6.70241">
        <ele>2077</ele>
        <time>2018-05-05T07:36:32Z</time>
      </trkpt>
      <trkpt lat="45.98943" lon="6.7025">
        <ele>2078</ele>
        <time>2018-05-05T07:36:44Z</time>
      </trkpt>
      <trkpt lat="45.98939" lon="6.70257">
        <ele>2078</ele>
        <time>2018-05-05T07:36:54Z</time>
      </trkpt>
      <trkpt lat="45.98932" lon="6.7027">
        <ele>2082</ele>
        <time>2018-05-05T07:37:21Z</time>
      </trkpt>
      <trkpt lat="45.98923" lon="6.70282">
        <ele>2086</ele>
        <time>2018-05-05T07:37:40Z</time>
      </trkpt>
      <trkpt lat="45.98919" lon="6.70288">
        <ele>2088</ele>
        <time>2018-05-05T07:37:51Z</time>
      </trkpt>
      <trkpt lat="45.98913" lon="6.70294">
        <ele>2091</ele>
        <time>2018-05-05T07:38:05Z</time>
      </trkpt>
      <trkpt lat="45.98908" lon="6.70297">
        <ele>2092</ele>
        <time>2018-05-05T07:38:14Z</time>
      </trkpt>
      <trkpt lat="45.98904" lon="6.70303">
        <ele>2095</ele>
        <time>2018-05-05T07:38:28Z</time>
      </trkpt>
      <trkpt lat="45.989" lon="6.70313">
        <ele>2097</ele>
        <time>2018-05-05T07:38:44Z</time>
      </trkpt>
      <trkpt lat="45.98895" lon="6.70319">
        <ele>2099</ele>
        <time>2018-05-05T07:38:55Z</time>
      </trkpt>
      <trkpt lat="45.98892" lon="6.70326">
        <ele>2100</ele>
        <time>2018-05-05T07:39:08Z</time>
      </trkpt>
      <trkpt lat="45.98886" lon="6.70332">
        <ele>2101</ele>
        <time>2018-05-05T07:39:19Z</time>
      </trkpt>
      <trkpt lat="45.98883" lon="6.70338">
        <ele>2102</ele>
        <time>2018-05-05T07:39:30Z</time>
      </trkpt>
      <trkpt lat="45.9888" lon="6.70345">
        <ele>2103</ele>
        <time>2018-05-05T07:39:42Z</time>
      </trkpt>
      <trkpt lat="45.98875" lon="6.7035">
        <ele>2105</ele>
        <time>2018-05-05T07:39:51Z</time>
      </trkpt>
      <trkpt lat="45.9887" lon="6.70354">
        <ele>2107</ele>
        <time>2018-05-05T07:40:02Z</time>
      </trkpt>
      <trkpt lat="45.98863" lon="6.70366">
        <ele>2111</ele>
        <time>2018-05-05T07:40:23Z</time>
      </trkpt>
      <trkpt lat="45.98848" lon="6.70382">
        <ele>2117</ele>
        <time>2018-05-05T07:40:58Z</time>
      </trkpt>
      <trkpt lat="45.98843" lon="6.70385">
        <ele>2119</ele>
        <time>2018-05-05T07:41:08Z</time>
      </trkpt>
      <trkpt lat="45.98838" lon="6.7039">
        <ele>2122</ele>
        <time>2018-05-05T07:41:20Z</time>
      </trkpt>
      <trkpt lat="45.98832" lon="6.70393">
        <ele>2123</ele>
        <time>2018-05-05T07:41:29Z</time>
      </trkpt>
      <trkpt lat="45.98829" lon="6.70398">
        <ele>2125</ele>
        <time>2018-05-05T07:42:11Z</time>
      </trkpt>
      <trkpt lat="45.98819" lon="6.70409">
        <ele>2127</ele>
        <time>2018-05-05T07:42:29Z</time>
      </trkpt>
      <trkpt lat="45.98809" lon="6.70417">
        <ele>2130</ele>
        <time>2018-05-05T07:42:48Z</time>
      </trkpt>
      <trkpt lat="45.98804" lon="6.70421">
        <ele>2132</ele>
        <time>2018-05-05T07:42:57Z</time>
      </trkpt>
      <trkpt lat="45.98798" lon="6.70424">
        <ele>2133</ele>
        <time>2018-05-05T07:43:06Z</time>
      </trkpt>
      <trkpt lat="45.98793" lon="6.70426">
        <ele>2134</ele>
        <time>2018-05-05T07:43:14Z</time>
      </trkpt>
      <trkpt lat="45.98788" lon="6.70433">
        <ele>2135</ele>
        <time>2018-05-05T07:43:26Z</time>
      </trkpt>
      <trkpt lat="45.98783" lon="6.70435">
        <ele>2137</ele>
        <time>2018-05-05T07:43:35Z</time>
      </trkpt>
      <trkpt lat="45.98779" lon="6.70439">
        <ele>2138</ele>
        <time>2018-05-05T07:43:48Z</time>
      </trkpt>
      <trkpt lat="45.98769" lon="6.70449">
        <ele>2140</ele>
        <time>2018-05-05T07:44:11Z</time>
      </trkpt>
      <trkpt lat="45.98765" lon="6.7045">
        <ele>2142</ele>
        <time>2018-05-05T07:44:20Z</time>
      </trkpt>
      <trkpt lat="45.98762" lon="6.70457">
        <ele>2142</ele>
        <time>2018-05-05T07:44:29Z</time>
      </trkpt>
      <trkpt lat="45.98757" lon="6.70462">
        <ele>2144</ele>
        <time>2018-05-05T07:44:40Z</time>
      </trkpt>
      <trkpt lat="45.98753" lon="6.70461">
        <ele>2144</ele>
        <time>2018-05-05T07:44:46Z</time>
      </trkpt>
      <trkpt lat="45.98745" lon="6.70472">
        <ele>2148</ele>
        <time>2018-05-05T07:45:10Z</time>
      </trkpt>
      <trkpt lat="45.9874" lon="6.70477">
        <ele>2150</ele>
        <time>2018-05-05T07:45:24Z</time>
      </trkpt>
      <trkpt lat="45.98735" lon="6.7048">
        <ele>2151</ele>
        <time>2018-05-05T07:45:33Z</time>
      </trkpt>
      <trkpt lat="45.9873" lon="6.70485">
        <ele>2153</ele>
        <time>2018-05-05T07:45:43Z</time>
      </trkpt>
      <trkpt lat="45.98723" lon="6.70486">
        <ele>2155</ele>
        <time>2018-05-05T07:45:55Z</time>
      </trkpt>
      <trkpt lat="45.98718" lon="6.7049">
        <ele>2156</ele>
        <time>2018-05-05T07:46:05Z</time>
      </trkpt>
      <trkpt lat="45.98714" lon="6.70495">
        <ele>2159</ele>
        <time>2018-05-05T07:46:13Z</time>
      </trkpt>
      <trkpt lat="45.98709" lon="6.70498">
        <ele>2161</ele>
        <time>2018-05-05T07:46:29Z</time>
      </trkpt>
      <trkpt lat="45.98699" lon="6.70504">
        <ele>2164</ele>
        <time>2018-05-05T07:46:50Z</time>
      </trkpt>
      <trkpt lat="45.98693" lon="6.70508">
        <ele>2165</ele>
        <time>2018-05-05T07:46:58Z</time>
      </trkpt>
      <trkpt lat="45.98689" lon="6.70513">
        <ele>2166</ele>
        <time>2018-05-05T07:47:06Z</time>
      </trkpt>
      <trkpt lat="45.98683" lon="6.7052">
        <ele>2167</ele>
        <time>2018-05-05T07:47:21Z</time>
      </trkpt>
      <trkpt lat="45.98679" lon="6.70525">
        <ele>2170</ele>
        <time>2018-05-05T07:47:31Z</time>
      </trkpt>
      <trkpt lat="45.98674" lon="6.7053">
        <ele>2173</ele>
        <time>2018-05-05T07:47:41Z</time>
      </trkpt>
      <trkpt lat="45.98662" lon="6.70539">
        <ele>2176</ele>
        <time>2018-05-05T07:48:04Z</time>
      </trkpt>
      <trkpt lat="45.98657" lon="6.70543">
        <ele>2177</ele>
        <time>2018-05-05T07:48:14Z</time>
      </trkpt>
      <trkpt lat="45.98652" lon="6.70549">
        <ele>2178</ele>
        <time>2018-05-05T07:48:25Z</time>
      </trkpt>
      <trkpt lat="45.98646" lon="6.70553">
        <ele>2179</ele>
        <time>2018-05-05T07:48:33Z</time>
      </trkpt>
      <trkpt lat="45.98637" lon="6.70561">
        <ele>2181</ele>
        <time>2018-05-05T07:48:53Z</time>
      </trkpt>
      <trkpt lat="45.98625" lon="6.70565">
        <ele>2183</ele>
        <time>2018-05-05T07:49:08Z</time>
      </trkpt>
      <trkpt lat="45.98611" lon="6.7057">
        <ele>2185</ele>
        <time>2018-05-05T07:49:31Z</time>
      </trkpt>
      <trkpt lat="45.98605" lon="6.70576">
        <ele>2187</ele>
        <time>2018-05-05T07:49:51Z</time>
      </trkpt>
      <trkpt lat="45.98599" lon="6.70579">
        <ele>2189</ele>
        <time>2018-05-05T07:50:01Z</time>
      </trkpt>
      <trkpt lat="45.98591" lon="6.7058">
        <ele>2191</ele>
        <time>2018-05-05T07:50:10Z</time>
      </trkpt>
      <trkpt lat="45.98586" lon="6.70583">
        <ele>2192</ele>
        <time>2018-05-05T07:50:19Z</time>
      </trkpt>
      <trkpt lat="45.98574" lon="6.70587">
        <ele>2195</ele>
        <time>2018-05-05T07:50:43Z</time>
      </trkpt>
      <trkpt lat="45.98568" lon="6.70589">
        <ele>2196</ele>
        <time>2018-05-05T07:50:52Z</time>
      </trkpt>
      <trkpt lat="45.98556" lon="6.70591">
        <ele>2198</ele>
        <time>2018-05-05T07:51:08Z</time>
      </trkpt>
      <trkpt lat="45.98551" lon="6.70594">
        <ele>2199</ele>
        <time>2018-05-05T07:51:25Z</time>
      </trkpt>
      <trkpt lat="45.98544" lon="6.70598">
        <ele>2199</ele>
        <time>2018-05-05T07:51:40Z</time>
      </trkpt>
      <trkpt lat="45.98537" lon="6.706">
        <ele>2200</ele>
        <time>2018-05-05T07:51:52Z</time>
      </trkpt>
      <trkpt lat="45.98528" lon="6.70604">
        <ele>2200</ele>
        <time>2018-05-05T07:51:59Z</time>
      </trkpt>
      <trkpt lat="45.9852" lon="6.70606">
        <ele>2201</ele>
        <time>2018-05-05T07:52:07Z</time>
      </trkpt>
      <trkpt lat="45.98498" lon="6.70598">
        <ele>2200</ele>
        <time>2018-05-05T08:02:16Z</time>
      </trkpt>
      <trkpt lat="45.9848" lon="6.706">
        <ele>2197</ele>
        <time>2018-05-05T08:02:32Z</time>
      </trkpt>
      <trkpt lat="45.98457" lon="6.70604">
        <ele>2199</ele>
        <time>2018-05-05T08:02:53Z</time>
      </trkpt>
      <trkpt lat="45.9845" lon="6.70608">
        <ele>2199</ele>
        <time>2018-05-05T08:03:01Z</time>
      </trkpt>
      <trkpt lat="45.98443" lon="6.7061">
        <ele>2199</ele>
        <time>2018-05-05T08:03:08Z</time>
      </trkpt>
      <trkpt lat="45.98435" lon="6.70611">
        <ele>2200</ele>
        <time>2018-05-05T08:03:19Z</time>
      </trkpt>
      <trkpt lat="45.98427" lon="6.70613">
        <ele>2201</ele>
        <time>2018-05-05T08:03:31Z</time>
      </trkpt>
      <trkpt lat="45.9842" lon="6.70617">
        <ele>2202</ele>
        <time>2018-05-05T08:03:45Z</time>
      </trkpt>
      <trkpt lat="45.98412" lon="6.70617">
        <ele>2204</ele>
        <time>2018-05-05T08:04:02Z</time>
      </trkpt>
      <trkpt lat="45.98404" lon="6.70619">
        <ele>2205</ele>
        <time>2018-05-05T08:04:13Z</time>
      </trkpt>
      <trkpt lat="45.98398" lon="6.70617">
        <ele>2207</ele>
        <time>2018-05-05T08:04:25Z</time>
      </trkpt>
      <trkpt lat="45.98393" lon="6.70619">
        <ele>2208</ele>
        <time>2018-05-05T08:04:35Z</time>
      </trkpt>
      <trkpt lat="45.98389" lon="6.70628">
        <ele>2211</ele>
        <time>2018-05-05T08:04:44Z</time>
      </trkpt>
      <trkpt lat="45.98388" lon="6.70638">
        <ele>2213</ele>
        <time>2018-05-05T08:04:57Z</time>
      </trkpt>
      <trkpt lat="45.98382" lon="6.70652">
        <ele>2217</ele>
        <time>2018-05-05T08:05:15Z</time>
      </trkpt>
      <trkpt lat="45.98374" lon="6.70655">
        <ele>2220</ele>
        <time>2018-05-05T08:05:36Z</time>
      </trkpt>
      <trkpt lat="45.9836" lon="6.70656">
        <ele>2222</ele>
        <time>2018-05-05T08:05:53Z</time>
      </trkpt>
      <trkpt lat="45.98352" lon="6.70652">
        <ele>2224</ele>
        <time>2018-05-05T08:06:06Z</time>
      </trkpt>
      <trkpt lat="45.98348" lon="6.7066">
        <ele>2225</ele>
        <time>2018-05-05T08:06:16Z</time>
      </trkpt>
      <trkpt lat="45.98342" lon="6.70677">
        <ele>2229</ele>
        <time>2018-05-05T08:06:36Z</time>
      </trkpt>
      <trkpt lat="45.98338" lon="6.70685">
        <ele>2231</ele>
        <time>2018-05-05T08:06:44Z</time>
      </trkpt>
      <trkpt lat="45.98331" lon="6.70687">
        <ele>2233</ele>
        <time>2018-05-05T08:07:05Z</time>
      </trkpt>
      <trkpt lat="45.98324" lon="6.70685">
        <ele>2235</ele>
        <time>2018-05-05T08:07:22Z</time>
      </trkpt>
      <trkpt lat="45.98321" lon="6.70695">
        <ele>2236</ele>
        <time>2018-05-05T08:07:31Z</time>
      </trkpt>
      <trkpt lat="45.98321" lon="6.70704">
        <ele>2239</ele>
        <time>2018-05-05T08:07:41Z</time>
      </trkpt>
      <trkpt lat="45.98321" lon="6.70712">
        <ele>2240</ele>
        <time>2018-05-05T08:07:52Z</time>
      </trkpt>
      <trkpt lat="45.98322" lon="6.70731">
        <ele>2245</ele>
        <time>2018-05-05T08:08:14Z</time>
      </trkpt>
      <trkpt lat="45.98317" lon="6.70729">
        <ele>2245</ele>
        <time>2018-05-05T08:08:27Z</time>
      </trkpt>
      <trkpt lat="45.98312" lon="6.70729">
        <ele>2247</ele>
        <time>2018-05-05T08:08:39Z</time>
      </trkpt>
      <trkpt lat="45.98298" lon="6.70727">
        <ele>2248</ele>
        <time>2018-05-05T08:09:01Z</time>
      </trkpt>
      <trkpt lat="45.98292" lon="6.70726">
        <ele>2251</ele>
        <time>2018-05-05T08:09:19Z</time>
      </trkpt>
      <trkpt lat="45.98285" lon="6.70733">
        <ele>2253</ele>
        <time>2018-05-05T08:09:28Z</time>
      </trkpt>
      <trkpt lat="45.98284" lon="6.70742">
        <ele>2256</ele>
        <time>2018-05-05T08:09:45Z</time>
      </trkpt>
      <trkpt lat="45.98278" lon="6.70746">
        <ele>2257</ele>
        <time>2018-05-05T08:09:54Z</time>
      </trkpt>
      <trkpt lat="45.98268" lon="6.70753">
        <ele>2261</ele>
        <time>2018-05-05T08:10:17Z</time>
      </trkpt>
      <trkpt lat="45.98262" lon="6.70755">
        <ele>2262</ele>
        <time>2018-05-05T08:10:24Z</time>
      </trkpt>
      <trkpt lat="45.98247" lon="6.70753">
        <ele>2264</ele>
        <time>2018-05-05T08:10:44Z</time>
      </trkpt>
      <trkpt lat="45.98244" lon="6.70759">
        <ele>2264</ele>
        <time>2018-05-05T08:11:00Z</time>
      </trkpt>
      <trkpt lat="45.9824" lon="6.70766">
        <ele>2267</ele>
        <time>2018-05-05T08:11:12Z</time>
      </trkpt>
      <trkpt lat="45.98235" lon="6.70769">
        <ele>2269</ele>
        <time>2018-05-05T08:11:29Z</time>
      </trkpt>
      <trkpt lat="45.98229" lon="6.70775">
        <ele>2273</ele>
        <time>2018-05-05T08:11:45Z</time>
      </trkpt>
      <trkpt lat="45.98222" lon="6.70775">
        <ele>2274</ele>
        <time>2018-05-05T08:11:50Z</time>
      </trkpt>
      <trkpt lat="45.98216" lon="6.70778">
        <ele>2276</ele>
        <time>2018-05-05T08:12:03Z</time>
      </trkpt>
      <trkpt lat="45.98212" lon="6.70783">
        <ele>2277</ele>
        <time>2018-05-05T08:12:19Z</time>
      </trkpt>
      <trkpt lat="45.98204" lon="6.70781">
        <ele>2278</ele>
        <time>2018-05-05T08:12:28Z</time>
      </trkpt>
      <trkpt lat="45.98199" lon="6.70782">
        <ele>2280</ele>
        <time>2018-05-05T08:12:39Z</time>
      </trkpt>
      <trkpt lat="45.98194" lon="6.70787">
        <ele>2281</ele>
        <time>2018-05-05T08:12:53Z</time>
      </trkpt>
      <trkpt lat="45.98188" lon="6.70789">
        <ele>2282</ele>
        <time>2018-05-05T08:13:04Z</time>
      </trkpt>
      <trkpt lat="45.98177" lon="6.70787">
        <ele>2284</ele>
        <time>2018-05-05T08:13:25Z</time>
      </trkpt>
      <trkpt lat="45.98164" lon="6.70789">
        <ele>2288</ele>
        <time>2018-05-05T08:13:51Z</time>
      </trkpt>
      <trkpt lat="45.98157" lon="6.70791">
        <ele>2290</ele>
        <time>2018-05-05T08:14:07Z</time>
      </trkpt>
      <trkpt lat="45.98151" lon="6.70789">
        <ele>2291</ele>
        <time>2018-05-05T08:14:16Z</time>
      </trkpt>
      <trkpt lat="45.98146" lon="6.70791">
        <ele>2295</ele>
        <time>2018-05-05T08:14:51Z</time>
      </trkpt>
      <trkpt lat="45.98139" lon="6.70791">
        <ele>2295</ele>
        <time>2018-05-05T08:15:21Z</time>
      </trkpt>
      <trkpt lat="45.98131" lon="6.70793">
        <ele>2298</ele>
        <time>2018-05-05T08:15:30Z</time>
      </trkpt>
      <trkpt lat="45.98125" lon="6.70796">
        <ele>2300</ele>
        <time>2018-05-05T08:15:37Z</time>
      </trkpt>
      <trkpt lat="45.98116" lon="6.70809">
        <ele>2304</ele>
        <time>2018-05-05T08:16:06Z</time>
      </trkpt>
      <trkpt lat="45.98109" lon="6.70811">
        <ele>2306</ele>
        <time>2018-05-05T08:16:27Z</time>
      </trkpt>
      <trkpt lat="45.98103" lon="6.70811">
        <ele>2306</ele>
        <time>2018-05-05T08:16:33Z</time>
      </trkpt>
      <trkpt lat="45.98096" lon="6.70807">
        <ele>2306</ele>
        <time>2018-05-05T08:16:44Z</time>
      </trkpt>
      <trkpt lat="45.98089" lon="6.70801">
        <ele>2307</ele>
        <time>2018-05-05T08:16:55Z</time>
      </trkpt>
      <trkpt lat="45.98084" lon="6.70801">
        <ele>2308</ele>
        <time>2018-05-05T08:17:06Z</time>
      </trkpt>
      <trkpt lat="45.98077" lon="6.70813">
        <ele>2313</ele>
        <time>2018-05-05T08:17:31Z</time>
      </trkpt>
      <trkpt lat="45.98068" lon="6.70828">
        <ele>2319</ele>
        <time>2018-05-05T08:17:55Z</time>
      </trkpt>
      <trkpt lat="45.9806" lon="6.7083">
        <ele>2321</ele>
        <time>2018-05-05T08:18:04Z</time>
      </trkpt>
      <trkpt lat="45.98054" lon="6.70828">
        <ele>2322</ele>
        <time>2018-05-05T08:18:17Z</time>
      </trkpt>
      <trkpt lat="45.98044" lon="6.70832">
        <ele>2323</ele>
        <time>2018-05-05T08:18:36Z</time>
      </trkpt>
      <trkpt lat="45.98038" lon="6.70833">
        <ele>2323</ele>
        <time>2018-05-05T08:18:47Z</time>
      </trkpt>
      <trkpt lat="45.98032" lon="6.70833">
        <ele>2325</ele>
        <time>2018-05-05T08:19:01Z</time>
      </trkpt>
      <trkpt lat="45.98024" lon="6.70833">
        <ele>2327</ele>
        <time>2018-05-05T08:19:13Z</time>
      </trkpt>
      <trkpt lat="45.98019" lon="6.70833">
        <ele>2330</ele>
        <time>2018-05-05T08:19:24Z</time>
      </trkpt>
      <trkpt lat="45.98013" lon="6.70832">
        <ele>2331</ele>
        <time>2018-05-05T08:19:36Z</time>
      </trkpt>
      <trkpt lat="45.98008" lon="6.70836">
        <ele>2334</ele>
        <time>2018-05-05T08:19:49Z</time>
      </trkpt>
      <trkpt lat="45.98003" lon="6.70839">
        <ele>2335</ele>
        <time>2018-05-05T08:19:59Z</time>
      </trkpt>
      <trkpt lat="45.97986" lon="6.70841">
        <ele>2341</ele>
        <time>2018-05-05T08:20:36Z</time>
      </trkpt>
      <trkpt lat="45.9798" lon="6.7084">
        <ele>2342</ele>
        <time>2018-05-05T08:20:52Z</time>
      </trkpt>
      <trkpt lat="45.97974" lon="6.7084">
        <ele>2344</ele>
        <time>2018-05-05T08:21:02Z</time>
      </trkpt>
      <trkpt lat="45.97964" lon="6.70837">
        <ele>2347</ele>
        <time>2018-05-05T08:21:21Z</time>
      </trkpt>
      <trkpt lat="45.97958" lon="6.70836">
        <ele>2348</ele>
        <time>2018-05-05T08:21:32Z</time>
      </trkpt>
      <trkpt lat="45.97952" lon="6.70835">
        <ele>2350</ele>
        <time>2018-05-05T08:21:44Z</time>
      </trkpt>
      <trkpt lat="45.97947" lon="6.70836">
        <ele>2352</ele>
        <time>2018-05-05T08:21:59Z</time>
      </trkpt>
      <trkpt lat="45.97943" lon="6.70837">
        <ele>2354</ele>
        <time>2018-05-05T08:22:12Z</time>
      </trkpt>
      <trkpt lat="45.97937" lon="6.70836">
        <ele>2355</ele>
        <time>2018-05-05T08:22:23Z</time>
      </trkpt>
      <trkpt lat="45.97931" lon="6.70835">
        <ele>2357</ele>
        <time>2018-05-05T08:22:36Z</time>
      </trkpt>
      <trkpt lat="45.97927" lon="6.70831">
        <ele>2357</ele>
        <time>2018-05-05T08:22:45Z</time>
      </trkpt>
      <trkpt lat="45.97921" lon="6.70829">
        <ele>2360</ele>
        <time>2018-05-05T08:22:58Z</time>
      </trkpt>
      <trkpt lat="45.97915" lon="6.70829">
        <ele>2362</ele>
        <time>2018-05-05T08:23:43Z</time>
      </trkpt>
      <trkpt lat="45.9791" lon="6.70825">
        <ele>2364</ele>
        <time>2018-05-05T08:23:55Z</time>
      </trkpt>
      <trkpt lat="45.97899" lon="6.7082">
        <ele>2367</ele>
        <time>2018-05-05T08:24:21Z</time>
      </trkpt>
      <trkpt lat="45.97889" lon="6.70817">
        <ele>2369</ele>
        <time>2018-05-05T08:24:41Z</time>
      </trkpt>
      <trkpt lat="45.97883" lon="6.70814">
        <ele>2371</ele>
        <time>2018-05-05T08:25:18Z</time>
      </trkpt>
      <trkpt lat="45.97876" lon="6.70814">
        <ele>2377</ele>
        <time>2018-05-05T08:25:40Z</time>
      </trkpt>
      <trkpt lat="45.9787" lon="6.70816">
        <ele>2378</ele>
        <time>2018-05-05T08:25:49Z</time>
      </trkpt>
      <trkpt lat="45.97859" lon="6.70818">
        <ele>2381</ele>
        <time>2018-05-05T08:26:13Z</time>
      </trkpt>
      <trkpt lat="45.97853" lon="6.70819">
        <ele>2384</ele>
        <time>2018-05-05T08:26:27Z</time>
      </trkpt>
      <trkpt lat="45.97847" lon="6.70818">
        <ele>2385</ele>
        <time>2018-05-05T08:26:34Z</time>
      </trkpt>
      <trkpt lat="45.97842" lon="6.70815">
        <ele>2386</ele>
        <time>2018-05-05T08:26:47Z</time>
      </trkpt>
      <trkpt lat="45.97836" lon="6.70812">
        <ele>2389</ele>
        <time>2018-05-05T08:27:01Z</time>
      </trkpt>
      <trkpt lat="45.97833" lon="6.70811">
        <ele>2390</ele>
        <time>2018-05-05T08:27:06Z</time>
      </trkpt>
      <trkpt lat="45.9782" lon="6.70806">
        <ele>2392</ele>
        <time>2018-05-05T08:27:36Z</time>
      </trkpt>
      <trkpt lat="45.97815" lon="6.70805">
        <ele>2393</ele>
        <time>2018-05-05T08:27:42Z</time>
      </trkpt>
      <trkpt lat="45.9781" lon="6.708">
        <ele>2397</ele>
        <time>2018-05-05T08:29:07Z</time>
      </trkpt>
      <trkpt lat="45.97806" lon="6.70795">
        <ele>2398</ele>
        <time>2018-05-05T08:29:16Z</time>
      </trkpt>
      <trkpt lat="45.97804" lon="6.70788">
        <ele>2399</ele>
        <time>2018-05-05T08:29:30Z</time>
      </trkpt>
      <trkpt lat="45.97799" lon="6.70772">
        <ele>2401</ele>
        <time>2018-05-05T08:29:52Z</time>
      </trkpt>
      <trkpt lat="45.97796" lon="6.70765">
        <ele>2403</ele>
        <time>2018-05-05T08:30:01Z</time>
      </trkpt>
      <trkpt lat="45.97791" lon="6.70761">
        <ele>2403</ele>
        <time>2018-05-05T08:30:11Z</time>
      </trkpt>
      <trkpt lat="45.97787" lon="6.70757">
        <ele>2406</ele>
        <time>2018-05-05T08:30:21Z</time>
      </trkpt>
      <trkpt lat="45.97784" lon="6.70747">
        <ele>2408</ele>
        <time>2018-05-05T08:30:35Z</time>
      </trkpt>
      <trkpt lat="45.97776" lon="6.70729">
        <ele>2413</ele>
        <time>2018-05-05T08:31:07Z</time>
      </trkpt>
      <trkpt lat="45.97773" lon="6.70723">
        <ele>2414</ele>
        <time>2018-05-05T08:31:23Z</time>
      </trkpt>
      <trkpt lat="45.97769" lon="6.70716">
        <ele>2415</ele>
        <time>2018-05-05T08:31:34Z</time>
      </trkpt>
      <trkpt lat="45.97761" lon="6.70699">
        <ele>2419</ele>
        <time>2018-05-05T08:32:29Z</time>
      </trkpt>
      <trkpt lat="45.97756" lon="6.70695">
        <ele>2420</ele>
        <time>2018-05-05T08:32:42Z</time>
      </trkpt>
      <trkpt lat="45.97754" lon="6.70687">
        <ele>2423</ele>
        <time>2018-05-05T08:33:04Z</time>
      </trkpt>
      <trkpt lat="45.9775" lon="6.70684">
        <ele>2423</ele>
        <time>2018-05-05T08:33:10Z</time>
      </trkpt>
      <trkpt lat="45.97748" lon="6.70679">
        <ele>2424</ele>
        <time>2018-05-05T08:33:18Z</time>
      </trkpt>
      <trkpt lat="45.97745" lon="6.70673">
        <ele>2425</ele>
        <time>2018-05-05T08:33:32Z</time>
      </trkpt>
      <trkpt lat="45.97733" lon="6.70655">
        <ele>2430</ele>
        <time>2018-05-05T08:34:07Z</time>
      </trkpt>
      <trkpt lat="45.97732" lon="6.70647">
        <ele>2430</ele>
        <time>2018-05-05T08:34:20Z</time>
      </trkpt>
      <trkpt lat="45.97734" lon="6.70638">
        <ele>2434</ele>
        <time>2018-05-05T08:34:37Z</time>
      </trkpt>
      <trkpt lat="45.97733" lon="6.7063">
        <ele>2436</ele>
        <time>2018-05-05T08:34:46Z</time>
      </trkpt>
      <trkpt lat="45.97729" lon="6.70619">
        <ele>2438</ele>
        <time>2018-05-05T08:35:01Z</time>
      </trkpt>
      <trkpt lat="45.97728" lon="6.70611">
        <ele>2440</ele>
        <time>2018-05-05T08:35:10Z</time>
      </trkpt>
      <trkpt lat="45.97729" lon="6.70588">
        <ele>2441</ele>
        <time>2018-05-05T08:35:31Z</time>
      </trkpt>
      <trkpt lat="45.97728" lon="6.7058">
        <ele>2442</ele>
        <time>2018-05-05T08:35:40Z</time>
      </trkpt>
      <trkpt lat="45.97727" lon="6.70572">
        <ele>2443</ele>
        <time>2018-05-05T08:35:49Z</time>
      </trkpt>
      <trkpt lat="45.97728" lon="6.70556">
        <ele>2444</ele>
        <time>2018-05-05T08:36:05Z</time>
      </trkpt>
      <trkpt lat="45.97729" lon="6.70541">
        <ele>2445</ele>
        <time>2018-05-05T08:36:22Z</time>
      </trkpt>
      <trkpt lat="45.97727" lon="6.70528">
        <ele>2446</ele>
        <time>2018-05-05T08:36:37Z</time>
      </trkpt>
      <trkpt lat="45.97727" lon="6.70522">
        <ele>2447</ele>
        <time>2018-05-05T08:36:47Z</time>
      </trkpt>
      <trkpt lat="45.97723" lon="6.70516">
        <ele>2448</ele>
        <time>2018-05-05T08:37:00Z</time>
      </trkpt>
      <trkpt lat="45.97719" lon="6.7051">
        <ele>2450</ele>
        <time>2018-05-05T08:37:15Z</time>
      </trkpt>
      <trkpt lat="45.97716" lon="6.70505">
        <ele>2452</ele>
        <time>2018-05-05T08:37:26Z</time>
      </trkpt>
      <trkpt lat="45.97713" lon="6.70503">
        <ele>2453</ele>
        <time>2018-05-05T08:37:34Z</time>
      </trkpt>
      <trkpt lat="45.97709" lon="6.705">
        <ele>2454</ele>
        <time>2018-05-05T08:37:39Z</time>
      </trkpt>
      <trkpt lat="45.97706" lon="6.70498">
        <ele>2455</ele>
        <time>2018-05-05T08:37:46Z</time>
      </trkpt>
      <trkpt lat="45.97704" lon="6.70492">
        <ele>2457</ele>
        <time>2018-05-05T08:38:05Z</time>
      </trkpt>
      <trkpt lat="45.97701" lon="6.70476">
        <ele>2461</ele>
        <time>2018-05-05T08:38:27Z</time>
      </trkpt>
      <trkpt lat="45.977" lon="6.7047">
        <ele>2462</ele>
        <time>2018-05-05T08:39:02Z</time>
      </trkpt>
      <trkpt lat="45.97696" lon="6.70469">
        <ele>2463</ele>
        <time>2018-05-05T08:39:32Z</time>
      </trkpt>
      <trkpt lat="45.97696" lon="6.70463">
        <ele>2465</ele>
        <time>2018-05-05T08:40:09Z</time>
      </trkpt>
      <trkpt lat="45.97696" lon="6.70454">
        <ele>2466</ele>
        <time>2018-05-05T08:40:18Z</time>
      </trkpt>
      <trkpt lat="45.97693" lon="6.70447">
        <ele>2467</ele>
        <time>2018-05-05T08:40:26Z</time>
      </trkpt>
      <trkpt lat="45.97691" lon="6.70439">
        <ele>2467</ele>
        <time>2018-05-05T08:40:35Z</time>
      </trkpt>
      <trkpt lat="45.9769" lon="6.70422">
        <ele>2468</ele>
        <time>2018-05-05T08:40:50Z</time>
      </trkpt>
      <trkpt lat="45.9769" lon="6.70413">
        <ele>2468</ele>
        <time>2018-05-05T08:40:56Z</time>
      </trkpt>
      <trkpt lat="45.9769" lon="6.70406">
        <ele>2470</ele>
        <time>2018-05-05T08:41:04Z</time>
      </trkpt>
      <trkpt lat="45.97687" lon="6.70398">
        <ele>2470</ele>
        <time>2018-05-05T08:41:11Z</time>
      </trkpt>
      <trkpt lat="45.97687" lon="6.70392">
        <ele>2471</ele>
        <time>2018-05-05T08:41:17Z</time>
      </trkpt>
      <trkpt lat="45.97685" lon="6.70386">
        <ele>2472</ele>
        <time>2018-05-05T08:41:23Z</time>
      </trkpt>
      <trkpt lat="45.97685" lon="6.7038">
        <ele>2473</ele>
        <time>2018-05-05T08:41:29Z</time>
      </trkpt>
      <trkpt lat="45.97683" lon="6.70375">
        <ele>2474</ele>
        <time>2018-05-05T08:41:36Z</time>
      </trkpt>
      <trkpt lat="45.97682" lon="6.70367">
        <ele>2474</ele>
        <time>2018-05-05T08:41:45Z</time>
      </trkpt>
      <trkpt lat="45.97682" lon="6.70361">
        <ele>2475</ele>
        <time>2018-05-05T08:41:50Z</time>
      </trkpt>
      <trkpt lat="45.9768" lon="6.70353">
        <ele>2476</ele>
        <time>2018-05-05T08:41:57Z</time>
      </trkpt>
      <trkpt lat="45.97675" lon="6.7033">
        <ele>2479</ele>
        <time>2018-05-05T08:42:21Z</time>
      </trkpt>
      <trkpt lat="45.97675" lon="6.70325">
        <ele>2479</ele>
        <time>2018-05-05T08:42:28Z</time>
      </trkpt>
      <trkpt lat="45.97667" lon="6.70292">
        <ele>2484</ele>
        <time>2018-05-05T08:43:03Z</time>
      </trkpt>
      <trkpt lat="45.97664" lon="6.70287">
        <ele>2485</ele>
        <time>2018-05-05T08:43:09Z</time>
      </trkpt>
      <trkpt lat="45.9766" lon="6.7026">
        <ele>2489</ele>
        <time>2018-05-05T08:43:56Z</time>
      </trkpt>
      <trkpt lat="45.97657" lon="6.70236">
        <ele>2491</ele>
        <time>2018-05-05T08:44:14Z</time>
      </trkpt>
      <trkpt lat="45.97656" lon="6.7023">
        <ele>2491</ele>
        <time>2018-05-05T08:44:19Z</time>
      </trkpt>
      <trkpt lat="45.97655" lon="6.70224">
        <ele>2491</ele>
        <time>2018-05-05T08:44:24Z</time>
      </trkpt>
      <trkpt lat="45.97655" lon="6.70219">
        <ele>2492</ele>
        <time>2018-05-05T08:44:29Z</time>
      </trkpt>
      <trkpt lat="45.97651" lon="6.702">
        <ele>2493</ele>
        <time>2018-05-05T08:44:43Z</time>
      </trkpt>
      <trkpt lat="45.9765" lon="6.70193">
        <ele>2493</ele>
        <time>2018-05-05T08:44:51Z</time>
      </trkpt>
      <trkpt lat="45.97646" lon="6.70181">
        <ele>2493</ele>
        <time>2018-05-05T08:45:05Z</time>
      </trkpt>
      <trkpt lat="45.97643" lon="6.70173">
        <ele>2494</ele>
        <time>2018-05-05T08:45:09Z</time>
      </trkpt>
      <trkpt lat="45.97641" lon="6.70168">
        <ele>2494</ele>
        <time>2018-05-05T08:45:13Z</time>
      </trkpt>
      <trkpt lat="45.97639" lon="6.70161">
        <ele>2494</ele>
        <time>2018-05-05T08:45:17Z</time>
      </trkpt>
      <trkpt lat="45.97637" lon="6.70152">
        <ele>2495</ele>
        <time>2018-05-05T08:45:24Z</time>
      </trkpt>
      <trkpt lat="45.97636" lon="6.70147">
        <ele>2495</ele>
        <time>2018-05-05T08:45:28Z</time>
      </trkpt>
      <trkpt lat="45.97632" lon="6.70136">
        <ele>2495</ele>
        <time>2018-05-05T08:45:40Z</time>
      </trkpt>
      <trkpt lat="45.97629" lon="6.70125">
        <ele>2496</ele>
        <time>2018-05-05T08:45:49Z</time>
      </trkpt>
      <trkpt lat="45.97623" lon="6.70094">
        <ele>2498</ele>
        <time>2018-05-05T08:46:21Z</time>
      </trkpt>
      <trkpt lat="45.97622" lon="6.70088">
        <ele>2498</ele>
        <time>2018-05-05T08:46:29Z</time>
      </trkpt>
      <trkpt lat="45.97618" lon="6.70075">
        <ele>2500</ele>
        <time>2018-05-05T08:46:46Z</time>
      </trkpt>
      <trkpt lat="45.97614" lon="6.70062">
        <ele>2502</ele>
        <time>2018-05-05T08:47:08Z</time>
      </trkpt>
      <trkpt lat="45.97613" lon="6.70057">
        <ele>2503</ele>
        <time>2018-05-05T08:47:15Z</time>
      </trkpt>
      <trkpt lat="45.97611" lon="6.70053">
        <ele>2504</ele>
        <time>2018-05-05T08:47:23Z</time>
      </trkpt>
      <trkpt lat="45.97607" lon="6.70049">
        <ele>2506</ele>
        <time>2018-05-05T08:47:31Z</time>
      </trkpt>
      <trkpt lat="45.97606" lon="6.70041">
        <ele>2508</ele>
        <time>2018-05-05T08:47:44Z</time>
      </trkpt>
      <trkpt lat="45.97604" lon="6.70038">
        <ele>2510</ele>
        <time>2018-05-05T08:47:54Z</time>
      </trkpt>
      <trkpt lat="45.976" lon="6.70033">
        <ele>2512</ele>
        <time>2018-05-05T08:48:05Z</time>
      </trkpt>
      <trkpt lat="45.97598" lon="6.70023">
        <ele>2514</ele>
        <time>2018-05-05T08:48:21Z</time>
      </trkpt>
      <trkpt lat="45.97597" lon="6.70015">
        <ele>2515</ele>
        <time>2018-05-05T08:48:32Z</time>
      </trkpt>
      <trkpt lat="45.97592" lon="6.70003">
        <ele>2518</ele>
        <time>2018-05-05T08:48:52Z</time>
      </trkpt>
      <trkpt lat="45.97589" lon="6.69993">
        <ele>2520</ele>
        <time>2018-05-05T08:49:14Z</time>
      </trkpt>
      <trkpt lat="45.97588" lon="6.69988">
        <ele>2522</ele>
        <time>2018-05-05T08:49:23Z</time>
      </trkpt>
      <trkpt lat="45.97586" lon="6.69983">
        <ele>2522</ele>
        <time>2018-05-05T08:49:32Z</time>
      </trkpt>
      <trkpt lat="45.97582" lon="6.69978">
        <ele>2525</ele>
        <time>2018-05-05T08:49:43Z</time>
      </trkpt>
      <trkpt lat="45.97582" lon="6.6997">
        <ele>2526</ele>
        <time>2018-05-05T08:49:55Z</time>
      </trkpt>
      <trkpt lat="45.9758" lon="6.69962">
        <ele>2528</ele>
        <time>2018-05-05T08:50:12Z</time>
      </trkpt>
      <trkpt lat="45.97578" lon="6.69958">
        <ele>2529</ele>
        <time>2018-05-05T08:50:21Z</time>
      </trkpt>
      <trkpt lat="45.97571" lon="6.69933">
        <ele>2534</ele>
        <time>2018-05-05T08:51:01Z</time>
      </trkpt>
      <trkpt lat="45.97569" lon="6.69929">
        <ele>2536</ele>
        <time>2018-05-05T08:51:07Z</time>
      </trkpt>
      <trkpt lat="45.97566" lon="6.69917">
        <ele>2538</ele>
        <time>2018-05-05T08:51:31Z</time>
      </trkpt>
      <trkpt lat="45.97563" lon="6.69913">
        <ele>2539</ele>
        <time>2018-05-05T08:51:43Z</time>
      </trkpt>
      <trkpt lat="45.9756" lon="6.699">
        <ele>2542</ele>
        <time>2018-05-05T08:52:03Z</time>
      </trkpt>
      <trkpt lat="45.97558" lon="6.69895">
        <ele>2542</ele>
        <time>2018-05-05T08:52:12Z</time>
      </trkpt>
      <trkpt lat="45.97556" lon="6.69891">
        <ele>2544</ele>
        <time>2018-05-05T08:52:22Z</time>
      </trkpt>
      <trkpt lat="45.9755" lon="6.69878">
        <ele>2548</ele>
        <time>2018-05-05T08:52:45Z</time>
      </trkpt>
      <trkpt lat="45.9755" lon="6.69872">
        <ele>2550</ele>
        <time>2018-05-05T08:52:55Z</time>
      </trkpt>
      <trkpt lat="45.97546" lon="6.69867">
        <ele>2552</ele>
        <time>2018-05-05T08:53:14Z</time>
      </trkpt>
      <trkpt lat="45.97543" lon="6.69863">
        <ele>2554</ele>
        <time>2018-05-05T08:53:21Z</time>
      </trkpt>
      <trkpt lat="45.97541" lon="6.69859">
        <ele>2556</ele>
        <time>2018-05-05T08:53:31Z</time>
      </trkpt>
      <trkpt lat="45.97538" lon="6.69855">
        <ele>2558</ele>
        <time>2018-05-05T08:53:39Z</time>
      </trkpt>
      <trkpt lat="45.97536" lon="6.6985">
        <ele>2559</ele>
        <time>2018-05-05T08:53:50Z</time>
      </trkpt>
      <trkpt lat="45.97534" lon="6.69844">
        <ele>2561</ele>
        <time>2018-05-05T08:54:03Z</time>
      </trkpt>
      <trkpt lat="45.97531" lon="6.69841">
        <ele>2562</ele>
        <time>2018-05-05T08:54:12Z</time>
      </trkpt>
      <trkpt lat="45.97526" lon="6.69839">
        <ele>2564</ele>
        <time>2018-05-05T08:54:26Z</time>
      </trkpt>
      <trkpt lat="45.97522" lon="6.69833">
        <ele>2565</ele>
        <time>2018-05-05T08:54:35Z</time>
      </trkpt>
      <trkpt lat="45.97518" lon="6.69829">
        <ele>2566</ele>
        <time>2018-05-05T08:54:55Z</time>
      </trkpt>
      <trkpt lat="45.97519" lon="6.69827">
        <ele>2570</ele>
        <time>2018-05-05T09:00:52Z</time>
      </trkpt>
      <trkpt lat="45.97516" lon="6.69824">
        <ele>2570</ele>
        <time>2018-05-05T09:01:07Z</time>
      </trkpt>
      <trkpt lat="45.97512" lon="6.69821">
        <ele>2571</ele>
        <time>2018-05-05T09:02:08Z</time>
      </trkpt>
      <trkpt lat="45.97511" lon="6.69824">
        <ele>2573</ele>
        <time>2018-05-05T09:05:27Z</time>
      </trkpt>
      <trkpt lat="45.97514" lon="6.69824">
        <ele>2574</ele>
        <time>2018-05-05T09:27:58Z</time>
      </trkpt>
      <trkpt lat="45.97521" lon="6.69836">
        <ele>2571</ele>
        <time>2018-05-05T09:34:19Z</time>
      </trkpt>
      <trkpt lat="45.97535" lon="6.69845">
        <ele>2566</ele>
        <time>2018-05-05T09:34:23Z</time>
      </trkpt>
      <trkpt lat="45.97545" lon="6.69854">
        <ele>2564</ele>
        <time>2018-05-05T09:34:26Z</time>
      </trkpt>
      <trkpt lat="45.97545" lon="6.69867">
        <ele>2562</ele>
        <time>2018-05-05T09:34:28Z</time>
      </trkpt>
      <trkpt lat="45.97552" lon="6.69881">
        <ele>2560</ele>
        <time>2018-05-05T09:34:30Z</time>
      </trkpt>
      <trkpt lat="45.97554" lon="6.69895">
        <ele>2559</ele>
        <time>2018-05-05T09:34:32Z</time>
      </trkpt>
      <trkpt lat="45.97554" lon="6.69908">
        <ele>2557</ele>
        <time>2018-05-05T09:34:34Z</time>
      </trkpt>
      <trkpt lat="45.97553" lon="6.69916">
        <ele>2555</ele>
        <time>2018-05-05T09:34:35Z</time>
      </trkpt>
      <trkpt lat="45.97557" lon="6.6993">
        <ele>2552</ele>
        <time>2018-05-05T09:34:37Z</time>
      </trkpt>
      <trkpt lat="45.97559" lon="6.69945">
        <ele>2548</ele>
        <time>2018-05-05T09:34:39Z</time>
      </trkpt>
      <trkpt lat="45.97563" lon="6.69969">
        <ele>2542</ele>
        <time>2018-05-05T09:34:42Z</time>
      </trkpt>
      <trkpt lat="45.97566" lon="6.69976">
        <ele>2540</ele>
        <time>2018-05-05T09:34:43Z</time>
      </trkpt>
      <trkpt lat="45.9757" lon="6.69982">
        <ele>2539</ele>
        <time>2018-05-05T09:34:44Z</time>
      </trkpt>
      <trkpt lat="45.97572" lon="6.69994">
        <ele>2536</ele>
        <time>2018-05-05T09:34:46Z</time>
      </trkpt>
      <trkpt lat="45.97579" lon="6.70014">
        <ele>2533</ele>
        <time>2018-05-05T09:34:49Z</time>
      </trkpt>
      <trkpt lat="45.97587" lon="6.70025">
        <ele>2530</ele>
        <time>2018-05-05T09:34:51Z</time>
      </trkpt>
      <trkpt lat="45.97594" lon="6.70037">
        <ele>2528</ele>
        <time>2018-05-05T09:34:53Z</time>
      </trkpt>
      <trkpt lat="45.97898" lon="6.70409">
        <ele>2436</ele>
        <time>2018-05-05T09:38:54Z</time>
      </trkpt>
      <trkpt lat="45.97926" lon="6.70397">
        <ele>2428</ele>
        <time>2018-05-05T09:39:05Z</time>
      </trkpt>
      <trkpt lat="45.97958" lon="6.70408">
        <ele>2405</ele>
        <time>2018-05-05T09:39:21Z</time>
      </trkpt>
      <trkpt lat="45.9799" lon="6.70407">
        <ele>2397</ele>
        <time>2018-05-05T09:39:29Z</time>
      </trkpt>
      <trkpt lat="45.98001" lon="6.70414">
        <ele>2393</ele>
        <time>2018-05-05T09:39:32Z</time>
      </trkpt>
      <trkpt lat="45.98013" lon="6.70421">
        <ele>2391</ele>
        <time>2018-05-05T09:39:36Z</time>
      </trkpt>
      <trkpt lat="45.98021" lon="6.70424">
        <ele>2385</ele>
        <time>2018-05-05T09:39:38Z</time>
      </trkpt>
      <trkpt lat="45.98028" lon="6.70428">
        <ele>2382</ele>
        <time>2018-05-05T09:39:40Z</time>
      </trkpt>
      <trkpt lat="45.98048" lon="6.70444">
        <ele>2377</ele>
        <time>2018-05-05T09:39:54Z</time>
      </trkpt>
      <trkpt lat="45.98057" lon="6.70445">
        <ele>2374</ele>
        <time>2018-05-05T09:40:00Z</time>
      </trkpt>
      <trkpt lat="45.98062" lon="6.70453">
        <ele>2368</ele>
        <time>2018-05-05T09:40:03Z</time>
      </trkpt>
      <trkpt lat="45.9807" lon="6.70456">
        <ele>2365</ele>
        <time>2018-05-05T09:40:06Z</time>
      </trkpt>
      <trkpt lat="45.98073" lon="6.70444">
        <ele>2364</ele>
        <time>2018-05-05T09:40:10Z</time>
      </trkpt>
      <trkpt lat="45.98081" lon="6.70448">
        <ele>2357</ele>
        <time>2018-05-05T09:40:15Z</time>
      </trkpt>
      <trkpt lat="45.98088" lon="6.70455">
        <ele>2355</ele>
        <time>2018-05-05T09:40:19Z</time>
      </trkpt>
      <trkpt lat="45.98097" lon="6.70456">
        <ele>2352</ele>
        <time>2018-05-05T09:40:36Z</time>
      </trkpt>
      <trkpt lat="45.98102" lon="6.7046">
        <ele>2349</ele>
        <time>2018-05-05T09:40:38Z</time>
      </trkpt>
      <trkpt lat="45.98111" lon="6.70465">
        <ele>2346</ele>
        <time>2018-05-05T09:40:40Z</time>
      </trkpt>
      <trkpt lat="45.98138" lon="6.70491">
        <ele>2328</ele>
        <time>2018-05-05T09:40:46Z</time>
      </trkpt>
      <trkpt lat="45.98147" lon="6.70493">
        <ele>2323</ele>
        <time>2018-05-05T09:40:48Z</time>
      </trkpt>
      <trkpt lat="45.98154" lon="6.70483">
        <ele>2318</ele>
        <time>2018-05-05T09:40:50Z</time>
      </trkpt>
      <trkpt lat="45.98161" lon="6.70487">
        <ele>2313</ele>
        <time>2018-05-05T09:41:00Z</time>
      </trkpt>
      <trkpt lat="45.98168" lon="6.70492">
        <ele>2311</ele>
        <time>2018-05-05T09:41:08Z</time>
      </trkpt>
      <trkpt lat="45.9818" lon="6.70481">
        <ele>2308</ele>
        <time>2018-05-05T09:41:12Z</time>
      </trkpt>
      <trkpt lat="45.98188" lon="6.70487">
        <ele>2301</ele>
        <time>2018-05-05T09:41:15Z</time>
      </trkpt>
      <trkpt lat="45.98191" lon="6.70479">
        <ele>2299</ele>
        <time>2018-05-05T09:41:17Z</time>
      </trkpt>
      <trkpt lat="45.98199" lon="6.70479">
        <ele>2294</ele>
        <time>2018-05-05T09:41:19Z</time>
      </trkpt>
      <trkpt lat="45.98206" lon="6.7049">
        <ele>2293</ele>
        <time>2018-05-05T09:41:21Z</time>
      </trkpt>
      <trkpt lat="45.98215" lon="6.7049">
        <ele>2288</ele>
        <time>2018-05-05T09:41:23Z</time>
      </trkpt>
      <trkpt lat="45.98223" lon="6.70472">
        <ele>2281</ele>
        <time>2018-05-05T09:41:25Z</time>
      </trkpt>
      <trkpt lat="45.98228" lon="6.70464">
        <ele>2279</ele>
        <time>2018-05-05T09:41:26Z</time>
      </trkpt>
      <trkpt lat="45.9824" lon="6.70459">
        <ele>2274</ele>
        <time>2018-05-05T09:41:28Z</time>
      </trkpt>
      <trkpt lat="45.98251" lon="6.70456">
        <ele>2272</ele>
        <time>2018-05-05T09:41:30Z</time>
      </trkpt>
      <trkpt lat="45.98263" lon="6.70463">
        <ele>2269</ele>
        <time>2018-05-05T09:41:33Z</time>
      </trkpt>
      <trkpt lat="45.98272" lon="6.70467">
        <ele>2266</ele>
        <time>2018-05-05T09:41:35Z</time>
      </trkpt>
      <trkpt lat="45.98282" lon="6.70462">
        <ele>2265</ele>
        <time>2018-05-05T09:41:37Z</time>
      </trkpt>
      <trkpt lat="45.9842" lon="6.70462">
        <ele>2250</ele>
        <time>2018-05-05T09:42:17Z</time>
      </trkpt>
      <trkpt lat="45.9843" lon="6.70465">
        <ele>2249</ele>
        <time>2018-05-05T09:42:22Z</time>
      </trkpt>
      <trkpt lat="45.98451" lon="6.70478">
        <ele>2246</ele>
        <time>2018-05-05T09:42:28Z</time>
      </trkpt>
      <trkpt lat="45.98479" lon="6.70493">
        <ele>2244</ele>
        <time>2018-05-05T09:42:34Z</time>
      </trkpt>
      <trkpt lat="45.98496" lon="6.70505">
        <ele>2242</ele>
        <time>2018-05-05T09:42:38Z</time>
      </trkpt>
      <trkpt lat="45.98516" lon="6.70517">
        <ele>2238</ele>
        <time>2018-05-05T09:42:42Z</time>
      </trkpt>
      <trkpt lat="45.98527" lon="6.70522">
        <ele>2236</ele>
        <time>2018-05-05T09:42:44Z</time>
      </trkpt>
      <trkpt lat="45.98535" lon="6.70533">
        <ele>2234</ele>
        <time>2018-05-05T09:42:46Z</time>
      </trkpt>
      <trkpt lat="45.98549" lon="6.70551">
        <ele>2231</ele>
        <time>2018-05-05T09:42:50Z</time>
      </trkpt>
      <trkpt lat="45.98562" lon="6.70554">
        <ele>2230</ele>
        <time>2018-05-05T09:42:52Z</time>
      </trkpt>
      <trkpt lat="45.98572" lon="6.70562">
        <ele>2227</ele>
        <time>2018-05-05T09:42:54Z</time>
      </trkpt>
      <trkpt lat="45.98585" lon="6.70562">
        <ele>2223</ele>
        <time>2018-05-05T09:42:56Z</time>
      </trkpt>
      <trkpt lat="45.98594" lon="6.70562">
        <ele>2218</ele>
        <time>2018-05-05T09:43:03Z</time>
      </trkpt>
      <trkpt lat="45.98603" lon="6.70568">
        <ele>2214</ele>
        <time>2018-05-05T09:45:13Z</time>
      </trkpt>
      <trkpt lat="45.98623" lon="6.70562">
        <ele>2204</ele>
        <time>2018-05-05T09:45:16Z</time>
      </trkpt>
      <trkpt lat="45.98629" lon="6.70558">
        <ele>2202</ele>
        <time>2018-05-05T09:45:17Z</time>
      </trkpt>
      <trkpt lat="45.98635" lon="6.70553">
        <ele>2200</ele>
        <time>2018-05-05T09:45:18Z</time>
      </trkpt>
      <trkpt lat="45.98654" lon="6.70546">
        <ele>2194</ele>
        <time>2018-05-05T09:45:21Z</time>
      </trkpt>
      <trkpt lat="45.98668" lon="6.70547">
        <ele>2190</ele>
        <time>2018-05-05T09:45:23Z</time>
      </trkpt>
      <trkpt lat="45.98681" lon="6.70546">
        <ele>2187</ele>
        <time>2018-05-05T09:45:25Z</time>
      </trkpt>
      <trkpt lat="45.98713" lon="6.70535">
        <ele>2179</ele>
        <time>2018-05-05T09:45:30Z</time>
      </trkpt>
      <trkpt lat="45.98727" lon="6.70527">
        <ele>2176</ele>
        <time>2018-05-05T09:45:32Z</time>
      </trkpt>
      <trkpt lat="45.98734" lon="6.70519">
        <ele>2175</ele>
        <time>2018-05-05T09:45:33Z</time>
      </trkpt>
      <trkpt lat="45.98741" lon="6.70511">
        <ele>2173</ele>
        <time>2018-05-05T09:45:34Z</time>
      </trkpt>
      <trkpt lat="45.9876" lon="6.70498">
        <ele>2169</ele>
        <time>2018-05-05T09:45:37Z</time>
      </trkpt>
      <trkpt lat="45.98779" lon="6.70484">
        <ele>2165</ele>
        <time>2018-05-05T09:45:40Z</time>
      </trkpt>
      <trkpt lat="45.98795" lon="6.70472">
        <ele>2160</ele>
        <time>2018-05-05T09:45:42Z</time>
      </trkpt>
      <trkpt lat="45.98813" lon="6.70458">
        <ele>2155</ele>
        <time>2018-05-05T09:45:44Z</time>
      </trkpt>
      <trkpt lat="45.9882" lon="6.70448">
        <ele>2153</ele>
        <time>2018-05-05T09:45:45Z</time>
      </trkpt>
      <trkpt lat="45.98829" lon="6.70442">
        <ele>2151</ele>
        <time>2018-05-05T09:45:46Z</time>
      </trkpt>
      <trkpt lat="45.98837" lon="6.70433">
        <ele>2148</ele>
        <time>2018-05-05T09:45:47Z</time>
      </trkpt>
      <trkpt lat="45.98844" lon="6.70426">
        <ele>2146</ele>
        <time>2018-05-05T09:45:48Z</time>
      </trkpt>
      <trkpt lat="45.98851" lon="6.7042">
        <ele>2143</ele>
        <time>2018-05-05T09:45:49Z</time>
      </trkpt>
      <trkpt lat="45.98856" lon="6.70411">
        <ele>2141</ele>
        <time>2018-05-05T09:45:50Z</time>
      </trkpt>
      <trkpt lat="45.9887" lon="6.70402">
        <ele>2136</ele>
        <time>2018-05-05T09:45:52Z</time>
      </trkpt>
      <trkpt lat="45.98884" lon="6.70391">
        <ele>2131</ele>
        <time>2018-05-05T09:45:54Z</time>
      </trkpt>
      <trkpt lat="45.98899" lon="6.70378">
        <ele>2126</ele>
        <time>2018-05-05T09:45:56Z</time>
      </trkpt>
      <trkpt lat="45.98906" lon="6.7037">
        <ele>2122</ele>
        <time>2018-05-05T09:45:57Z</time>
      </trkpt>
      <trkpt lat="45.98911" lon="6.70359">
        <ele>2120</ele>
        <time>2018-05-05T09:45:58Z</time>
      </trkpt>
      <trkpt lat="45.98923" lon="6.70342">
        <ele>2115</ele>
        <time>2018-05-05T09:46:00Z</time>
      </trkpt>
      <trkpt lat="45.98933" lon="6.70325">
        <ele>2112</ele>
        <time>2018-05-05T09:46:02Z</time>
      </trkpt>
      <trkpt lat="45.98934" lon="6.70316">
        <ele>2110</ele>
        <time>2018-05-05T09:46:03Z</time>
      </trkpt>
      <trkpt lat="45.98936" lon="6.70309">
        <ele>2109</ele>
        <time>2018-05-05T09:46:04Z</time>
      </trkpt>
      <trkpt lat="45.98942" lon="6.70301">
        <ele>2108</ele>
        <time>2018-05-05T09:46:05Z</time>
      </trkpt>
      <trkpt lat="45.98947" lon="6.70294">
        <ele>2105</ele>
        <time>2018-05-05T09:46:06Z</time>
      </trkpt>
      <trkpt lat="45.98952" lon="6.70293">
        <ele>2104</ele>
        <time>2018-05-05T09:46:07Z</time>
      </trkpt>
      <trkpt lat="45.98957" lon="6.70288">
        <ele>2101</ele>
        <time>2018-05-05T09:46:08Z</time>
      </trkpt>
      <trkpt lat="45.98968" lon="6.70286">
        <ele>2098</ele>
        <time>2018-05-05T09:46:10Z</time>
      </trkpt>
      <trkpt lat="45.98973" lon="6.7028">
        <ele>2097</ele>
        <time>2018-05-05T09:46:11Z</time>
      </trkpt>
      <trkpt lat="45.98985" lon="6.70275">
        <ele>2093</ele>
        <time>2018-05-05T09:46:13Z</time>
      </trkpt>
      <trkpt lat="45.98992" lon="6.70269">
        <ele>2091</ele>
        <time>2018-05-05T09:46:14Z</time>
      </trkpt>
      <trkpt lat="45.98998" lon="6.70266">
        <ele>2090</ele>
        <time>2018-05-05T09:46:15Z</time>
      </trkpt>
      <trkpt lat="45.99011" lon="6.70254">
        <ele>2086</ele>
        <time>2018-05-05T09:46:17Z</time>
      </trkpt>
      <trkpt lat="45.99019" lon="6.70249">
        <ele>2083</ele>
        <time>2018-05-05T09:46:18Z</time>
      </trkpt>
      <trkpt lat="45.99024" lon="6.7024">
        <ele>2082</ele>
        <time>2018-05-05T09:46:19Z</time>
      </trkpt>
      <trkpt lat="45.99027" lon="6.70233">
        <ele>2079</ele>
        <time>2018-05-05T09:46:20Z</time>
      </trkpt>
      <trkpt lat="45.99027" lon="6.70226">
        <ele>2076</ele>
        <time>2018-05-05T09:46:32Z</time>
      </trkpt>
      <trkpt lat="45.99032" lon="6.70215">
        <ele>2075</ele>
        <time>2018-05-05T09:47:32Z</time>
      </trkpt>
      <trkpt lat="45.99037" lon="6.70201">
        <ele>2069</ele>
        <time>2018-05-05T09:47:34Z</time>
      </trkpt>
      <trkpt lat="45.99045" lon="6.70191">
        <ele>2065</ele>
        <time>2018-05-05T09:47:36Z</time>
      </trkpt>
      <trkpt lat="45.99055" lon="6.70181">
        <ele>2062</ele>
        <time>2018-05-05T09:47:38Z</time>
      </trkpt>
      <trkpt lat="45.99062" lon="6.70176">
        <ele>2060</ele>
        <time>2018-05-05T09:47:39Z</time>
      </trkpt>
      <trkpt lat="45.99068" lon="6.70166">
        <ele>2058</ele>
        <time>2018-05-05T09:47:40Z</time>
      </trkpt>
      <trkpt lat="45.99074" lon="6.70161">
        <ele>2057</ele>
        <time>2018-05-05T09:47:41Z</time>
      </trkpt>
      <trkpt lat="45.99086" lon="6.70148">
        <ele>2053</ele>
        <time>2018-05-05T09:47:43Z</time>
      </trkpt>
      <trkpt lat="45.99092" lon="6.70141">
        <ele>2050</ele>
        <time>2018-05-05T09:47:44Z</time>
      </trkpt>
      <trkpt lat="45.99099" lon="6.70135">
        <ele>2049</ele>
        <time>2018-05-05T09:47:45Z</time>
      </trkpt>
      <trkpt lat="45.99105" lon="6.7013">
        <ele>2046</ele>
        <time>2018-05-05T09:47:46Z</time>
      </trkpt>
      <trkpt lat="45.99111" lon="6.70128">
        <ele>2044</ele>
        <time>2018-05-05T09:47:47Z</time>
      </trkpt>
      <trkpt lat="45.99117" lon="6.70122">
        <ele>2041</ele>
        <time>2018-05-05T09:47:48Z</time>
      </trkpt>
      <trkpt lat="45.99122" lon="6.70114">
        <ele>2039</ele>
        <time>2018-05-05T09:47:49Z</time>
      </trkpt>
      <trkpt lat="45.9913" lon="6.70112">
        <ele>2036</ele>
        <time>2018-05-05T09:47:50Z</time>
      </trkpt>
      <trkpt lat="45.99135" lon="6.70105">
        <ele>2034</ele>
        <time>2018-05-05T09:47:51Z</time>
      </trkpt>
      <trkpt lat="45.99142" lon="6.70097">
        <ele>2031</ele>
        <time>2018-05-05T09:47:52Z</time>
      </trkpt>
      <trkpt lat="45.99148" lon="6.70093">
        <ele>2030</ele>
        <time>2018-05-05T09:47:53Z</time>
      </trkpt>
      <trkpt lat="45.99176" lon="6.70074">
        <ele>2021</ele>
        <time>2018-05-05T09:47:58Z</time>
      </trkpt>
      <trkpt lat="45.9918" lon="6.70067">
        <ele>2019</ele>
        <time>2018-05-05T09:47:59Z</time>
      </trkpt>
      <trkpt lat="45.99196" lon="6.70001">
        <ele>2014</ele>
        <time>2018-05-05T09:48:12Z</time>
      </trkpt>
      <trkpt lat="45.99199" lon="6.69985">
        <ele>2011</ele>
        <time>2018-05-05T09:48:14Z</time>
      </trkpt>
      <trkpt lat="45.99205" lon="6.69974">
        <ele>2009</ele>
        <time>2018-05-05T09:48:16Z</time>
      </trkpt>
      <trkpt lat="45.99211" lon="6.69968">
        <ele>2006</ele>
        <time>2018-05-05T09:48:17Z</time>
      </trkpt>
      <trkpt lat="45.9922" lon="6.69953">
        <ele>2003</ele>
        <time>2018-05-05T09:48:19Z</time>
      </trkpt>
      <trkpt lat="45.99231" lon="6.69945">
        <ele>2001</ele>
        <time>2018-05-05T09:48:21Z</time>
      </trkpt>
      <trkpt lat="45.99234" lon="6.69937">
        <ele>1999</ele>
        <time>2018-05-05T09:48:22Z</time>
      </trkpt>
      <trkpt lat="45.99235" lon="6.69924">
        <ele>1996</ele>
        <time>2018-05-05T09:48:24Z</time>
      </trkpt>
      <trkpt lat="45.99239" lon="6.69917">
        <ele>1994</ele>
        <time>2018-05-05T09:48:26Z</time>
      </trkpt>
      <trkpt lat="45.99249" lon="6.69918">
        <ele>1991</ele>
        <time>2018-05-05T09:49:23Z</time>
      </trkpt>
      <trkpt lat="45.99255" lon="6.69915">
        <ele>1990</ele>
        <time>2018-05-05T09:49:24Z</time>
      </trkpt>
      <trkpt lat="45.99259" lon="6.69907">
        <ele>1989</ele>
        <time>2018-05-05T09:49:25Z</time>
      </trkpt>
      <trkpt lat="45.99264" lon="6.69901">
        <ele>1988</ele>
        <time>2018-05-05T09:49:26Z</time>
      </trkpt>
      <trkpt lat="45.9927" lon="6.69898">
        <ele>1987</ele>
        <time>2018-05-05T09:49:27Z</time>
      </trkpt>
      <trkpt lat="45.99277" lon="6.69886">
        <ele>1982</ele>
        <time>2018-05-05T09:49:29Z</time>
      </trkpt>
      <trkpt lat="45.99283" lon="6.69886">
        <ele>1981</ele>
        <time>2018-05-05T09:49:30Z</time>
      </trkpt>
      <trkpt lat="45.99305" lon="6.69869">
        <ele>1973</ele>
        <time>2018-05-05T09:49:34Z</time>
      </trkpt>
      <trkpt lat="45.99316" lon="6.69866">
        <ele>1970</ele>
        <time>2018-05-05T09:49:51Z</time>
      </trkpt>
      <trkpt lat="45.99333" lon="6.6984">
        <ele>1959</ele>
        <time>2018-05-05T09:49:56Z</time>
      </trkpt>
      <trkpt lat="45.99339" lon="6.6982">
        <ele>1957</ele>
        <time>2018-05-05T09:49:58Z</time>
      </trkpt>
      <trkpt lat="45.99346" lon="6.69816">
        <ele>1955</ele>
        <time>2018-05-05T09:49:59Z</time>
      </trkpt>
      <trkpt lat="45.99352" lon="6.6981">
        <ele>1953</ele>
        <time>2018-05-05T09:50:00Z</time>
      </trkpt>
      <trkpt lat="45.99365" lon="6.69801">
        <ele>1950</ele>
        <time>2018-05-05T09:50:02Z</time>
      </trkpt>
      <trkpt lat="45.99381" lon="6.69794">
        <ele>1946</ele>
        <time>2018-05-05T09:50:04Z</time>
      </trkpt>
      <trkpt lat="45.99395" lon="6.69786">
        <ele>1943</ele>
        <time>2018-05-05T09:50:06Z</time>
      </trkpt>
      <trkpt lat="45.99408" lon="6.69782">
        <ele>1939</ele>
        <time>2018-05-05T09:50:08Z</time>
      </trkpt>
      <trkpt lat="45.99466" lon="6.69748">
        <ele>1928</ele>
        <time>2018-05-05T09:50:21Z</time>
      </trkpt>
      <trkpt lat="45.99481" lon="6.69731">
        <ele>1926</ele>
        <time>2018-05-05T09:51:03Z</time>
      </trkpt>
      <trkpt lat="45.99488" lon="6.69723">
        <ele>1925</ele>
        <time>2018-05-05T09:51:05Z</time>
      </trkpt>
      <trkpt lat="45.99497" lon="6.69719">
        <ele>1924</ele>
        <time>2018-05-05T09:51:07Z</time>
      </trkpt>
      <trkpt lat="45.99508" lon="6.69714">
        <ele>1921</ele>
        <time>2018-05-05T09:51:09Z</time>
      </trkpt>
      <trkpt lat="45.99514" lon="6.69711">
        <ele>1918</ele>
        <time>2018-05-05T09:51:10Z</time>
      </trkpt>
      <trkpt lat="45.99519" lon="6.69705">
        <ele>1917</ele>
        <time>2018-05-05T09:51:11Z</time>
      </trkpt>
      <trkpt lat="45.99524" lon="6.69699">
        <ele>1914</ele>
        <time>2018-05-05T09:51:12Z</time>
      </trkpt>
      <trkpt lat="45.99531" lon="6.69694">
        <ele>1912</ele>
        <time>2018-05-05T09:51:13Z</time>
      </trkpt>
      <trkpt lat="45.99536" lon="6.69687">
        <ele>1909</ele>
        <time>2018-05-05T09:51:14Z</time>
      </trkpt>
      <trkpt lat="45.99542" lon="6.69682">
        <ele>1907</ele>
        <time>2018-05-05T09:51:15Z</time>
      </trkpt>
      <trkpt lat="45.99547" lon="6.69672">
        <ele>1905</ele>
        <time>2018-05-05T09:51:16Z</time>
      </trkpt>
      <trkpt lat="45.99553" lon="6.69667">
        <ele>1903</ele>
        <time>2018-05-05T09:51:17Z</time>
      </trkpt>
      <trkpt lat="45.99565" lon="6.69654">
        <ele>1899</ele>
        <time>2018-05-05T09:51:19Z</time>
      </trkpt>
      <trkpt lat="45.9957" lon="6.69645">
        <ele>1896</ele>
        <time>2018-05-05T09:51:20Z</time>
      </trkpt>
      <trkpt lat="45.99573" lon="6.69635">
        <ele>1895</ele>
        <time>2018-05-05T09:51:21Z</time>
      </trkpt>
      <trkpt lat="45.99578" lon="6.69629">
        <ele>1893</ele>
        <time>2018-05-05T09:51:22Z</time>
      </trkpt>
      <trkpt lat="45.99581" lon="6.69622">
        <ele>1892</ele>
        <time>2018-05-05T09:51:23Z</time>
      </trkpt>
      <trkpt lat="45.99584" lon="6.69605">
        <ele>1889</ele>
        <time>2018-05-05T09:51:25Z</time>
      </trkpt>
      <trkpt lat="45.99583" lon="6.69595">
        <ele>1887</ele>
        <time>2018-05-05T09:51:27Z</time>
      </trkpt>
      <trkpt lat="45.99594" lon="6.69592">
        <ele>1885</ele>
        <time>2018-05-05T09:52:17Z</time>
      </trkpt>
      <trkpt lat="45.99597" lon="6.69578">
        <ele>1881</ele>
        <time>2018-05-05T09:52:19Z</time>
      </trkpt>
      <trkpt lat="45.99604" lon="6.69563">
        <ele>1877</ele>
        <time>2018-05-05T09:52:21Z</time>
      </trkpt>
      <trkpt lat="45.99611" lon="6.6955">
        <ele>1875</ele>
        <time>2018-05-05T09:52:23Z</time>
      </trkpt>
      <trkpt lat="45.99614" lon="6.69538">
        <ele>1872</ele>
        <time>2018-05-05T09:52:24Z</time>
      </trkpt>
      <trkpt lat="45.99623" lon="6.69524">
        <ele>1867</ele>
        <time>2018-05-05T09:52:26Z</time>
      </trkpt>
      <trkpt lat="45.9963" lon="6.69507">
        <ele>1864</ele>
        <time>2018-05-05T09:52:28Z</time>
      </trkpt>
      <trkpt lat="45.9966" lon="6.6951">
        <ele>1850</ele>
        <time>2018-05-05T09:52:34Z</time>
      </trkpt>
      <trkpt lat="45.99666" lon="6.69512">
        <ele>1844</ele>
        <time>2018-05-05T09:52:36Z</time>
      </trkpt>
      <trkpt lat="45.99674" lon="6.69517">
        <ele>1842</ele>
        <time>2018-05-05T09:52:38Z</time>
      </trkpt>
      <trkpt lat="45.99683" lon="6.69525">
        <ele>1837</ele>
        <time>2018-05-05T09:52:40Z</time>
      </trkpt>
      <trkpt lat="45.99696" lon="6.69531">
        <ele>1835</ele>
        <time>2018-05-05T09:52:42Z</time>
      </trkpt>
      <trkpt lat="45.99701" lon="6.6954">
        <ele>1831</ele>
        <time>2018-05-05T09:52:44Z</time>
      </trkpt>
      <trkpt lat="45.99709" lon="6.69548">
        <ele>1828</ele>
        <time>2018-05-05T09:52:46Z</time>
      </trkpt>
      <trkpt lat="45.99723" lon="6.69544">
        <ele>1820</ele>
        <time>2018-05-05T09:52:49Z</time>
      </trkpt>
      <trkpt lat="45.99731" lon="6.69551">
        <ele>1813</ele>
        <time>2018-05-05T09:52:51Z</time>
      </trkpt>
      <trkpt lat="45.99739" lon="6.69548">
        <ele>1809</ele>
        <time>2018-05-05T09:52:54Z</time>
      </trkpt>
      <trkpt lat="45.99742" lon="6.69535">
        <ele>1805</ele>
        <time>2018-05-05T09:52:57Z</time>
      </trkpt>
      <trkpt lat="45.99749" lon="6.69544">
        <ele>1801</ele>
        <time>2018-05-05T09:53:14Z</time>
      </trkpt>
      <trkpt lat="45.9976" lon="6.69543">
        <ele>1795</ele>
        <time>2018-05-05T09:53:16Z</time>
      </trkpt>
      <trkpt lat="45.99773" lon="6.69548">
        <ele>1791</ele>
        <time>2018-05-05T09:53:18Z</time>
      </trkpt>
      <trkpt lat="45.99782" lon="6.69544">
        <ele>1788</ele>
        <time>2018-05-05T09:53:19Z</time>
      </trkpt>
      <trkpt lat="45.99787" lon="6.69534">
        <ele>1786</ele>
        <time>2018-05-05T09:53:20Z</time>
      </trkpt>
      <trkpt lat="45.99798" lon="6.69513">
        <ele>1782</ele>
        <time>2018-05-05T09:53:22Z</time>
      </trkpt>
      <trkpt lat="45.99807" lon="6.69462">
        <ele>1775</ele>
        <time>2018-05-05T09:53:27Z</time>
      </trkpt>
      <trkpt lat="45.99844" lon="6.69381">
        <ele>1765</ele>
        <time>2018-05-05T09:53:35Z</time>
      </trkpt>
      <trkpt lat="45.99865" lon="6.69364">
        <ele>1762</ele>
        <time>2018-05-05T09:53:38Z</time>
      </trkpt>
      <trkpt lat="45.99873" lon="6.6935">
        <ele>1759</ele>
        <time>2018-05-05T09:53:40Z</time>
      </trkpt>
      <trkpt lat="45.99877" lon="6.69336">
        <ele>1757</ele>
        <time>2018-05-05T09:53:42Z</time>
      </trkpt>
      <trkpt lat="45.99873" lon="6.6929">
        <ele>1755</ele>
        <time>2018-05-05T09:53:56Z</time>
      </trkpt>
      <trkpt lat="45.99877" lon="6.69254">
        <ele>1754</ele>
        <time>2018-05-05T09:54:07Z</time>
      </trkpt>
      <trkpt lat="45.99887" lon="6.69249">
        <ele>1753</ele>
        <time>2018-05-05T09:55:17Z</time>
      </trkpt>
      <trkpt lat="45.99891" lon="6.69228">
        <ele>1752</ele>
        <time>2018-05-05T09:55:21Z</time>
      </trkpt>
      <trkpt lat="45.99898" lon="6.69223">
        <ele>1749</ele>
        <time>2018-05-05T09:55:23Z</time>
      </trkpt>
      <trkpt lat="45.99907" lon="6.69221">
        <ele>1747</ele>
        <time>2018-05-05T09:55:25Z</time>
      </trkpt>
      <trkpt lat="45.99915" lon="6.69215">
        <ele>1743</ele>
        <time>2018-05-05T09:55:27Z</time>
      </trkpt>
      <trkpt lat="45.99925" lon="6.69215">
        <ele>1738</ele>
        <time>2018-05-05T09:55:29Z</time>
      </trkpt>
      <trkpt lat="45.99935" lon="6.69214">
        <ele>1735</ele>
        <time>2018-05-05T09:55:31Z</time>
      </trkpt>
      <trkpt lat="45.99945" lon="6.69218">
        <ele>1731</ele>
        <time>2018-05-05T09:55:33Z</time>
      </trkpt>
      <trkpt lat="45.99956" lon="6.69216">
        <ele>1725</ele>
        <time>2018-05-05T09:55:35Z</time>
      </trkpt>
      <trkpt lat="45.99965" lon="6.69217">
        <ele>1722</ele>
        <time>2018-05-05T09:55:37Z</time>
      </trkpt>
      <trkpt lat="45.99974" lon="6.69218">
        <ele>1717</ele>
        <time>2018-05-05T09:55:39Z</time>
      </trkpt>
      <trkpt lat="45.99985" lon="6.69218">
        <ele>1714</ele>
        <time>2018-05-05T09:55:41Z</time>
      </trkpt>
      <trkpt lat="45.9999" lon="6.69222">
        <ele>1710</ele>
        <time>2018-05-05T09:55:42Z</time>
      </trkpt>
      <trkpt lat="46.00005" lon="6.69216">
        <ele>1702</ele>
        <time>2018-05-05T09:55:45Z</time>
      </trkpt>
      <trkpt lat="46.0001" lon="6.69211">
        <ele>1700</ele>
        <time>2018-05-05T09:55:46Z</time>
      </trkpt>
      <trkpt lat="46.00021" lon="6.69211">
        <ele>1694</ele>
        <time>2018-05-05T09:55:48Z</time>
      </trkpt>
      <trkpt lat="46.00033" lon="6.69208">
        <ele>1689</ele>
        <time>2018-05-05T09:55:50Z</time>
      </trkpt>
      <trkpt lat="46.00047" lon="6.69208">
        <ele>1684</ele>
        <time>2018-05-05T09:55:52Z</time>
      </trkpt>
      <trkpt lat="46.00053" lon="6.69205">
        <ele>1682</ele>
        <time>2018-05-05T09:55:53Z</time>
      </trkpt>
      <trkpt lat="46.00059" lon="6.69208">
        <ele>1679</ele>
        <time>2018-05-05T09:55:54Z</time>
      </trkpt>
      <trkpt lat="46.00065" lon="6.69208">
        <ele>1678</ele>
        <time>2018-05-05T09:55:55Z</time>
      </trkpt>
      <trkpt lat="46.00072" lon="6.69204">
        <ele>1674</ele>
        <time>2018-05-05T09:55:56Z</time>
      </trkpt>
      <trkpt lat="46.00084" lon="6.69205">
        <ele>1670</ele>
        <time>2018-05-05T09:55:58Z</time>
      </trkpt>
      <trkpt lat="46.00092" lon="6.69212">
        <ele>1664</ele>
        <time>2018-05-05T09:56:00Z</time>
      </trkpt>
      <trkpt lat="46.00102" lon="6.69217">
        <ele>1658</ele>
        <time>2018-05-05T09:56:02Z</time>
      </trkpt>
      <trkpt lat="46.00113" lon="6.69217">
        <ele>1655</ele>
        <time>2018-05-05T09:56:04Z</time>
      </trkpt>
      <trkpt lat="46.00119" lon="6.69221">
        <ele>1651</ele>
        <time>2018-05-05T09:56:05Z</time>
      </trkpt>
      <trkpt lat="46.00125" lon="6.6922">
        <ele>1649</ele>
        <time>2018-05-05T09:56:06Z</time>
      </trkpt>
      <trkpt lat="46.00134" lon="6.69224">
        <ele>1645</ele>
        <time>2018-05-05T09:56:08Z</time>
      </trkpt>
      <trkpt lat="46.00144" lon="6.69227">
        <ele>1642</ele>
        <time>2018-05-05T09:56:10Z</time>
      </trkpt>
      <trkpt lat="46.0015" lon="6.69229">
        <ele>1640</ele>
        <time>2018-05-05T09:56:11Z</time>
      </trkpt>
      <trkpt lat="46.00157" lon="6.69231">
        <ele>1638</ele>
        <time>2018-05-05T09:56:12Z</time>
      </trkpt>
      <trkpt lat="46.00166" lon="6.69227">
        <ele>1636</ele>
        <time>2018-05-05T09:56:14Z</time>
      </trkpt>
      <trkpt lat="46.00172" lon="6.6923">
        <ele>1633</ele>
        <time>2018-05-05T09:56:15Z</time>
      </trkpt>
      <trkpt lat="46.00178" lon="6.69228">
        <ele>1631</ele>
        <time>2018-05-05T09:56:16Z</time>
      </trkpt>
      <trkpt lat="46.00184" lon="6.69226">
        <ele>1627</ele>
        <time>2018-05-05T09:56:17Z</time>
      </trkpt>
      <trkpt lat="46.00195" lon="6.69229">
        <ele>1624</ele>
        <time>2018-05-05T09:56:19Z</time>
      </trkpt>
      <trkpt lat="46.00205" lon="6.69225">
        <ele>1619</ele>
        <time>2018-05-05T09:56:21Z</time>
      </trkpt>
      <trkpt lat="46.00212" lon="6.69231">
        <ele>1617</ele>
        <time>2018-05-05T09:56:23Z</time>
      </trkpt>
      <trkpt lat="46.00223" lon="6.69229">
        <ele>1613</ele>
        <time>2018-05-05T09:56:25Z</time>
      </trkpt>
      <trkpt lat="46.00233" lon="6.6923">
        <ele>1611</ele>
        <time>2018-05-05T09:56:27Z</time>
      </trkpt>
      <trkpt lat="46.00244" lon="6.69231">
        <ele>1608</ele>
        <time>2018-05-05T09:56:29Z</time>
      </trkpt>
      <trkpt lat="46.00255" lon="6.69231">
        <ele>1604</ele>
        <time>2018-05-05T09:56:31Z</time>
      </trkpt>
      <trkpt lat="46.00263" lon="6.69214">
        <ele>1598</ele>
        <time>2018-05-05T09:56:34Z</time>
      </trkpt>
      <trkpt lat="46.00275" lon="6.69208">
        <ele>1594</ele>
        <time>2018-05-05T09:56:36Z</time>
      </trkpt>
      <trkpt lat="46.00288" lon="6.69211">
        <ele>1591</ele>
        <time>2018-05-05T09:56:38Z</time>
      </trkpt>
      <trkpt lat="46.00303" lon="6.6921">
        <ele>1588</ele>
        <time>2018-05-05T09:56:40Z</time>
      </trkpt>
      <trkpt lat="46.00313" lon="6.69206">
        <ele>1586</ele>
        <time>2018-05-05T09:56:42Z</time>
      </trkpt>
      <trkpt lat="46.0033" lon="6.69193">
        <ele>1584</ele>
        <time>2018-05-05T09:56:48Z</time>
      </trkpt>
      <trkpt lat="46.00343" lon="6.69194">
        <ele>1581</ele>
        <time>2018-05-05T10:00:05Z</time>
      </trkpt>
      <trkpt lat="46.00361" lon="6.69195">
        <ele>1583</ele>
        <time>2018-05-05T10:00:26Z</time>
      </trkpt>
      <trkpt lat="46.00379" lon="6.69193">
        <ele>1586</ele>
        <time>2018-05-05T10:00:51Z</time>
      </trkpt>
      <trkpt lat="46.00387" lon="6.69186">
        <ele>1587</ele>
        <time>2018-05-05T10:01:00Z</time>
      </trkpt>
      <trkpt lat="46.00393" lon="6.69174">
        <ele>1588</ele>
        <time>2018-05-05T10:01:13Z</time>
      </trkpt>
      <trkpt lat="46.00398" lon="6.69165">
        <ele>1588</ele>
        <time>2018-05-05T10:01:20Z</time>
      </trkpt>
      <trkpt lat="46.00402" lon="6.6916">
        <ele>1588</ele>
        <time>2018-05-05T10:01:26Z</time>
      </trkpt>
      <trkpt lat="46.00412" lon="6.69149">
        <ele>1587</ele>
        <time>2018-05-05T10:01:41Z</time>
      </trkpt>
      <trkpt lat="46.00412" lon="6.69127">
        <ele>1587</ele>
        <time>2018-05-05T10:01:58Z</time>
      </trkpt>
      <trkpt lat="46.00414" lon="6.69117">
        <ele>1587</ele>
        <time>2018-05-05T10:02:07Z</time>
      </trkpt>
      <trkpt lat="46.00418" lon="6.69101">
        <ele>1586</ele>
        <time>2018-05-05T10:02:14Z</time>
      </trkpt>
      <trkpt lat="46.00426" lon="6.69095">
        <ele>1584</ele>
        <time>2018-05-05T10:02:28Z</time>
      </trkpt>
      <trkpt lat="46.00434" lon="6.69092">
        <ele>1582</ele>
        <time>2018-05-05T10:02:40Z</time>
      </trkpt>
    </trkseg>
  </trk>
</gpx>